M I D A S
Marine Information and Data Acquisition System
Tripno 2115 of the Zeeleeuw from 2011-06-06 06:29:49 to 2011-06-06 14:13:31
Back to CruiseResearch ActivitiesStationsMapUnderway DataData graphs

EquipmentUnitsComment
TimeDGPSUTC
LatitudeDGPSDM.mWGS84
LongitudeDGPSDM.mWGS84
TemperatureSBE03/SBE38deg celciusITS90
ConductivitySBE21S/mITS90
SalinitySBE21 Practical Salinity Units
ChlorophylAChelsea fluorimeterg/lCalibrated in Aceton
Missing or incorrect values are displayed as -999
Sea surface data collected by the RV Zeeleeuw from 2011-06-06 06:30:19 to 2011-06-06 14:23:41
                                                                                    Next 1000 lines
Time Latitude Longitude Temperature Conductivity Salinity ChlorophylA
2011-06-06 06:30:31 51°13.635 2°56.019 19.2928 0.073349 0.385851 -3.020363
2011-06-06 06:30:35 51°13.635 2°56.019 19.2932 0.073349 0.385851 -3.020363
2011-06-06 06:30:40 51°13.635 2°56.019 19.2942 0.073349 0.385851 -3.020363
2011-06-06 06:30:46 51°13.635 2°56.019 19.2948 0.073349 0.385857 -3.020363
2011-06-06 06:30:51 51°13.635 2°56.019 19.2952 0.073349 0.385864 -3.020363
2011-06-06 06:30:55 51°13.635 2°56.019 19.295 0.073349 0.385864 -3.020363
2011-06-06 06:31:00 51°13.635 2°56.019 19.2951 0.073349 0.385864 -3.020363
2011-06-06 06:31:05 51°13.635 2°56.019 19.2948 0.073349 0.385864 -3.020363
2011-06-06 06:31:10 51°13.635 2°56.019 19.2954 0.073349 0.38587 -3.020363
2011-06-06 06:31:15 51°13.635 2°56.019 19.295 0.073349 0.38587 -3.020363
2011-06-06 06:31:20 51°13.635 2°56.019 19.2953 0.073349 0.385876 -3.020363
2011-06-06 06:31:25 51°13.635 2°56.019 19.2965 0.073349 0.385876 -3.020363
2011-06-06 06:31:30 51°13.635 2°56.019 19.2961 0.073349 0.385876 -3.020363
2011-06-06 06:31:35 51°13.635 2°56.019 19.2964 0.073349 0.385883 -3.020363
2011-06-06 06:31:40 51°13.635 2°56.019 19.2955 0.073349 0.385883 -3.020363
2011-06-06 06:31:45 51°13.635 2°56.019 19.295 0.073349 0.385883 -3.020363
2011-06-06 06:31:50 51°13.635 2°56.019 19.2947 0.073349 0.385889 -3.020363
2011-06-06 06:31:55 51°13.635 2°56.019 19.2951 0.073349 0.385889 -3.020363
2011-06-06 06:31:59 51°13.636 2°56.019 19.2937 0.073349 0.385889 -3.020363
2011-06-06 06:32:05 51°13.636 2°56.019 19.2938 0.073349 0.385896 -3.020363
2011-06-06 06:32:10 51°13.635 2°56.019 19.2945 0.073349 0.385896 -3.020363
2011-06-06 06:32:15 51°13.636 2°56.019 19.295 0.073349 0.385902 -3.020363
2011-06-06 06:32:20 51°13.636 2°56.019 19.2954 0.073349 0.385902 -3.020363
2011-06-06 06:32:25 51°13.635 2°56.019 19.2961 0.073349 0.385902 -3.020363
2011-06-06 06:32:30 51°13.635 2°56.019 19.2973 0.073349 0.385902 -3.020363
2011-06-06 06:32:35 51°13.635 2°56.019 19.2981 0.073349 0.385909 -3.020363
2011-06-06 06:32:40 51°13.635 2°56.019 19.2991 0.073349 0.385909 -3.020363
2011-06-06 06:32:45 51°13.634 2°56.019 19.2995 0.073349 0.385909 -3.020363
2011-06-06 06:32:50 51°13.634 2°56.019 19.2996 0.073349 0.385915 -3.020363
2011-06-06 06:32:55 51°13.633 2°56.019 19.3002 0.073349 0.385915 -3.020363
2011-06-06 06:32:59 51°13.633 2°56.019 19.3008 0.073349 0.385915 -3.020363
2011-06-06 06:33:05 51°13.633 2°56.019 19.3017 0.073349 0.385922 -3.020363
2011-06-06 06:33:10 51°13.633 2°56.019 19.301 0.073349 0.385922 -3.020363
2011-06-06 06:33:15 51°13.633 2°56.019 19.3008 0.073349 0.385922 -3.020363
2011-06-06 06:33:19 51°13.633 2°56.019 19.278 0.073349 0.385928 -3.020363
2011-06-06 06:33:25 51°13.633 2°56.018 19.2641 0.073349 0.385928 -3.020363
2011-06-06 06:33:30 51°13.633 2°56.017 19.2725 0.073349 0.385928 -3.020363
2011-06-06 06:33:35 51°13.634 2°56.014 19.2873 0.073349 0.385935 -3.020363
2011-06-06 06:33:40 51°13.634 2°56.01 19.2846 0.073349 0.385928 -3.020363
2011-06-06 06:33:45 51°13.635 2°56.005 19.2809 0.073349 0.385935 -3.020363
2011-06-06 06:33:51 51°13.637 2°55.998 19.2979 0.073349 0.385935 -3.020363
2011-06-06 06:33:56 51°13.639 2°55.991 19.3038 0.073349 0.385935 -3.020363
2011-06-06 06:34:02 51°13.642 2°55.981 19.2983 0.073349 0.385935 -3.020363
2011-06-06 06:34:07 51°13.644 2°55.972 19.2933 0.073349 0.385935 -3.020363
2011-06-06 06:34:13 51°13.647 2°55.961 19.3145 0.073349 0.385935 -3.020363
2011-06-06 06:34:19 51°13.65 2°55.95 19.3109 0.073349 0.385941 -3.020363
2011-06-06 06:34:23 51°13.652 2°55.941 19.3176 0.073349 0.385948 -3.020363
2011-06-06 06:34:29 51°13.656 2°55.929 19.3191 0.073349 0.385948 -3.020363
2011-06-06 06:34:34 51°13.658 2°55.919 19.3166 0.073349 0.385948 -3.020363
2011-06-06 06:34:39 51°13.661 2°55.909 19.3141 0.073349 0.385948 -3.020363
2011-06-06 06:34:43 51°13.663 2°55.901 19.3153 0.073349 0.385948 -3.020363
2011-06-06 06:34:49 51°13.666 2°55.889 19.3189 0.073349 0.385954 -3.020363
2011-06-06 06:34:54 51°13.669 2°55.879 19.3213 0.073349 0.385954 -3.020363
2011-06-06 06:34:59 51°13.671 2°55.869 19.3192 0.073349 0.385954 -3.020363
2011-06-06 06:35:03 51°13.673 2°55.862 19.3168 0.073349 0.385954 -3.020363
2011-06-06 06:35:09 51°13.675 2°55.85 19.3163 0.073349 0.385961 -3.020363
2011-06-06 06:35:14 51°13.678 2°55.84 19.3181 0.073349 0.385967 -3.020363
2011-06-06 06:35:19 51°13.68 2°55.831 19.317 0.073349 0.385967 -3.020363
2011-06-06 06:35:23 51°13.681 2°55.824 19.3152 0.073349 0.385967 -3.020363
2011-06-06 06:35:29 51°13.683 2°55.814 19.3144 0.073349 0.385967 -3.020363
2011-06-06 06:35:34 51°13.685 2°55.805 19.3147 0.073349 0.385967 -3.020363
2011-06-06 06:35:39 51°13.687 2°55.797 19.3149 0.073349 0.385974 -3.020363
2011-06-06 06:35:43 51°13.688 2°55.79 19.3155 0.073349 0.385974 -3.020363
2011-06-06 06:35:49 51°13.69 2°55.78 19.3127 0.073349 0.38598 -3.020363
2011-06-06 06:35:54 51°13.691 2°55.772 19.3151 0.073349 0.38598 -3.020363
2011-06-06 06:35:59 51°13.692 2°55.764 19.3179 0.073349 0.38598 -3.020363
2011-06-06 06:36:03 51°13.693 2°55.758 19.3189 0.073349 0.38598 -3.020363
2011-06-06 06:36:09 51°13.695 2°55.749 19.321 0.073349 0.38598 -3.020363
2011-06-06 06:36:14 51°13.696 2°55.743 19.3211 0.073349 0.38598 -3.020363
2011-06-06 06:36:19 51°13.696 2°55.739 19.3282 0.073349 0.38598 -3.020363
2011-06-06 06:36:23 51°13.697 2°55.737 19.3442 0.073349 0.385999 -3.020363
2011-06-06 06:36:29 51°13.697 2°55.735 19.3435 0.073349 0.385999 -3.020363
2011-06-06 06:36:34 51°13.697 2°55.736 19.3404 0.073349 0.386025 -3.020363
2011-06-06 06:36:39 51°13.698 2°55.737 19.3364 0.073349 0.386051 -3.020363
2011-06-06 06:36:43 51°13.698 2°55.738 19.3351 0.073349 0.386064 -3.020363
2011-06-06 06:36:49 51°13.7 2°55.74 19.3188 0.073349 0.386064 -3.020363
2011-06-06 06:36:53 51°13.701 2°55.742 19.3108 0.073349 0.386051 -3.020363
2011-06-06 06:36:59 51°13.702 2°55.743 19.2733 0.073349 0.386051 -3.020363
2011-06-06 06:37:03 51°13.703 2°55.744 19.2747 0.073349 0.386032 -3.020363
2011-06-06 06:37:08 51°13.703 2°55.744 19.2516 0.073349 0.386006 -3.020363
2011-06-06 06:37:13 51°13.702 2°55.742 19.2382 0.073349 0.385987 -3.020363
2011-06-06 06:37:18 51°13.701 2°55.741 19.3124 0.073349 0.385967 -3.020363
2011-06-06 06:37:23 51°13.7 2°55.739 19.3144 0.073349 0.385954 -3.020363
2011-06-06 06:37:27 51°13.698 2°55.737 19.3099 0.073349 0.385954 -3.020363
2011-06-06 06:37:32 51°13.696 2°55.734 19.3141 0.073349 0.385954 -3.020363
2011-06-06 06:37:38 51°13.693 2°55.731 19.3147 0.073349 0.385954 -3.020363
2011-06-06 06:37:43 51°13.691 2°55.728 19.3192 0.073349 0.385974 -3.020363
2011-06-06 06:37:49 51°13.689 2°55.726 19.3142 0.073349 0.38598 -3.020363
2011-06-06 06:37:54 51°13.688 2°55.725 19.3278 0.073349 0.385993 -3.020363
2011-06-06 06:37:59 51°13.688 2°55.725 19.3332 0.073349 0.385993 -3.020363
2011-06-06 06:38:03 51°13.689 2°55.725 19.3338 0.073349 0.386006 -3.020363
2011-06-06 06:38:09 51°13.692 2°55.725 19.3358 0.073349 0.386019 -3.020363
2011-06-06 06:38:14 51°13.695 2°55.725 19.3345 0.073349 0.386025 -3.020363
2011-06-06 06:38:19 51°13.698 2°55.725 19.3343 0.073349 0.386032 -3.020363
2011-06-06 06:38:23 51°13.701 2°55.725 19.334 0.073349 0.386025 -3.020363
2011-06-06 06:38:29 51°13.707 2°55.723 19.3336 0.073349 0.386025 -3.020363
2011-06-06 06:38:34 51°13.713 2°55.721 19.3317 0.073349 0.386032 -3.020363
2011-06-06 06:38:39 51°13.718 2°55.719 19.3293 0.073349 0.386032 -3.020363
2011-06-06 06:38:43 51°13.723 2°55.716 19.3228 0.073349 0.386025 -3.020363
2011-06-06 06:38:48 51°13.73 2°55.713 19.3128 0.073349 0.386019 -3.020363
2011-06-06 06:38:53 51°13.737 2°55.709 19.3065 0.073349 0.386019 -3.020363
2011-06-06 06:38:58 51°13.744 2°55.704 19.3046 0.073349 0.386019 -3.020363
2011-06-06 06:39:03 51°13.752 2°55.699 19.3119 0.073349 0.386019 -3.020363
2011-06-06 06:39:07 51°13.758 2°55.695 19.3087 0.073349 0.386025 -3.020363
2011-06-06 06:39:12 51°13.766 2°55.689 19.3096 0.073349 0.386032 -3.020363
2011-06-06 06:39:17 51°13.774 2°55.683 19.3114 0.073349 0.386038 -3.020363
2011-06-06 06:39:22 51°13.783 2°55.677 19.31 0.073349 0.386045 -3.020363
2011-06-06 06:39:27 51°13.791 2°55.67 19.302 0.073349 0.386045 -3.020363
2011-06-06 06:39:31 51°13.798 2°55.664 19.301 0.073349 0.386051 -3.020363
2011-06-06 06:39:36 51°13.807 2°55.657 19.3003 0.073349 0.386058 -3.020363
2011-06-06 06:39:41 51°13.816 2°55.65 19.2936 0.073349 0.386058 -3.020363
2011-06-06 06:39:46 51°13.826 2°55.643 19.2892 0.073349 0.386064 -3.020363
2011-06-06 06:39:51 51°13.836 2°55.635 19.2788 0.073349 0.386064 -3.020363
2011-06-06 06:39:55 51°13.844 2°55.629 19.2801 0.073349 0.386064 -3.020363
2011-06-06 06:40:00 51°13.854 2°55.622 19.2769 0.073349 0.386064 -3.020363
2011-06-06 06:40:05 51°13.864 2°55.615 19.2883 0.073349 0.386064 -3.020363
2011-06-06 06:40:10 51°13.875 2°55.607 19.3154 0.073349 0.386064 -3.020363
2011-06-06 06:40:15 51°13.886 2°55.6 19.3042 0.073349 0.386064 -3.020363
2011-06-06 06:40:19 51°13.895 2°55.594 19.3019 0.073349 0.386071 -3.020363
2011-06-06 06:40:25 51°13.909 2°55.584 19.3037 0.073349 0.386071 -3.020363
2011-06-06 06:40:30 51°13.92 2°55.575 19.3039 0.073349 0.386071 -3.020363
2011-06-06 06:40:35 51°13.931 2°55.566 19.2968 0.073349 0.386077 -3.020363
2011-06-06 06:40:40 51°13.943 2°55.558 19.3022 0.073349 0.386084 -3.020363
2011-06-06 06:40:45 51°13.954 2°55.549 19.3016 0.073349 0.386084 -3.020363
2011-06-06 06:40:50 51°13.966 2°55.541 19.312 0.073349 0.38609 -3.020363
2011-06-06 06:40:55 51°13.977 2°55.532 19.3074 0.073349 0.38609 -3.020363
2011-06-06 06:41:00 51°13.989 2°55.523 19.3101 0.073349 0.38609 -3.020363
2011-06-06 06:41:05 51°14 2°55.514 19.3074 0.073349 0.386097 -3.020363
2011-06-06 06:41:10 51°14.012 2°55.505 19.3046 0.073349 0.386103 -3.020363
2011-06-06 06:41:15 51°14.023 2°55.496 19.3111 0.073349 0.386103 -3.020363
2011-06-06 06:41:20 51°14.035 2°55.487 19.3039 0.073349 0.386103 -3.020363
2011-06-06 06:41:25 51°14.046 2°55.478 19.2978 0.073349 0.386103 -3.020363
2011-06-06 06:41:30 51°14.057 2°55.468 19.3179 0.073349 0.386103 -3.020363
2011-06-06 06:41:35 51°14.069 2°55.46 19.3087 0.073349 0.386103 -3.020363
2011-06-06 06:41:40 51°14.08 2°55.451 19.3224 0.073349 0.386103 -3.020363
2011-06-06 06:41:45 51°14.091 2°55.442 19.3071 0.073349 0.386103 -3.020363
2011-06-06 06:41:50 51°14.102 2°55.434 19.3275 0.073349 0.38611 -3.020363
2011-06-06 06:41:55 51°14.113 2°55.426 19.3174 0.073349 0.38611 -3.020363
2011-06-06 06:42:00 51°14.124 2°55.418 19.3275 0.073349 0.386116 -3.020363
2011-06-06 06:42:05 51°14.135 2°55.411 19.3343 0.073349 0.386116 -3.020363
2011-06-06 06:42:10 51°14.146 2°55.403 19.3353 0.073349 0.386123 -3.020363
2011-06-06 06:42:15 51°14.157 2°55.396 19.3215 0.073349 0.386123 -3.020363
2011-06-06 06:42:19 51°14.165 2°55.39 19.3311 0.073349 0.386129 -3.020363
2011-06-06 06:42:25 51°14.178 2°55.381 19.3431 0.073349 0.386129 -3.020363
2011-06-06 06:42:30 51°14.188 2°55.374 19.3377 0.073349 0.386129 -3.020363
2011-06-06 06:42:35 51°14.199 2°55.366 19.3092 0.073349 0.386129 -3.020363
2011-06-06 06:42:40 51°14.209 2°55.358 19.3392 0.073349 0.386129 -3.020363
2011-06-06 06:42:45 51°14.219 2°55.35 19.3388 0.073349 0.386136 -3.020363
2011-06-06 06:42:50 51°14.229 2°55.342 19.3376 0.073349 0.386136 -3.020363
2011-06-06 06:42:55 51°14.239 2°55.334 18.6367 0.073349 0.386136 -3.020363
2011-06-06 06:43:00 51°14.249 2°55.325 18.311 0.073349 0.386376 -3.020363
2011-06-06 06:43:05 51°14.258 2°55.316 18.1487 0.073349 0.384799 -3.020363
2011-06-06 06:43:11 51°14.27 2°55.304 17.8922 0.073554 0.386527 -3.020363
2011-06-06 06:43:15 51°14.277 2°55.296 17.743 0.617228 3.707355 -3.020363
2011-06-06 06:43:19 51°14.285 2°55.289 17.6952 2.489541 17.104108 -3.020363
2011-06-06 06:43:25 51°14.296 2°55.277 17.6174 2.489541 17.104108 -3.020363
2011-06-06 06:43:30 51°14.304 2°55.266 17.557 2.704377 18.801513 -3.020363
2011-06-06 06:43:35 51°14.313 2°55.256 17.5675 3.044547 21.616177 -3.020363
2011-06-06 06:43:40 51°14.322 2°55.246 17.5403 3.583304 26.095064 -3.020363
2011-06-06 06:43:45 51°14.331 2°55.235 17.4877 3.907403 28.888948 -3.020363
2011-06-06 06:43:51 51°14.341 2°55.222 17.4868 3.929476 29.231428 -3.020363
2011-06-06 06:43:55 51°14.348 2°55.214 17.4659 3.929476 29.231428 -3.020363
2011-06-06 06:44:00 51°14.357 2°55.203 17.4731 3.930722 29.369888 -3.020363
2011-06-06 06:44:05 51°14.365 2°55.192 17.464 3.923781 29.401777 -3.020363
2011-06-06 06:44:10 51°14.374 2°55.18 17.4408 3.923057 29.456549 -3.020363
2011-06-06 06:44:15 51°14.383 2°55.169 17.455 3.920778 29.484139 -3.020363
2011-06-06 06:44:20 51°14.392 2°55.158 17.4184 3.919535 29.504326 -3.020363
2011-06-06 06:44:25 51°14.401 2°55.147 17.427 3.919535 29.504326 -3.020363
2011-06-06 06:44:30 51°14.41 2°55.136 17.4116 3.913526 29.479983 -3.020363
2011-06-06 06:44:35 51°14.419 2°55.125 17.401 3.910211 29.471844 -3.020363
2011-06-06 06:44:39 51°14.426 2°55.116 17.3842 3.906274 29.455015 -3.020363
2011-06-06 06:44:45 51°14.436 2°55.103 17.3867 3.901611 29.429197 -3.020363
2011-06-06 06:44:50 51°14.445 2°55.092 17.3824 3.901715 29.443369 -3.020363
2011-06-06 06:44:55 51°14.454 2°55.08 17.3825 3.901715 29.443369 -3.020363
2011-06-06 06:45:00 51°14.462 2°55.069 17.3616 3.904306 29.474962 -3.020363
2011-06-06 06:45:05 51°14.47 2°55.057 17.3697 3.909797 29.531538 -3.020363
2011-06-06 06:45:10 51°14.478 2°55.046 17.3502 3.914978 29.587299 -3.020363
2011-06-06 06:45:15 51°14.487 2°55.034 17.3587 3.921713 29.653859 -3.020363
2011-06-06 06:45:20 51°14.497 2°55.023 17.3252 3.926791 29.705938 -3.020363
2011-06-06 06:45:25 51°14.507 2°55.011 17.3307 3.926791 29.705938 -3.020363
2011-06-06 06:45:30 51°14.518 2°54.999 17.334 3.931765 29.756016 -3.020363
2011-06-06 06:45:35 51°14.529 2°54.987 17.3126 3.934562 29.784274 -3.020363
2011-06-06 06:45:40 51°14.54 2°54.973 17.3159 3.937878 29.818674 -3.020363
2011-06-06 06:45:45 51°14.551 2°54.958 17.3076 3.9385 29.830382 -3.020363
2011-06-06 06:45:50 51°14.563 2°54.943 17.3133 3.935288 29.812713 -3.020363
2011-06-06 06:45:55 51°14.575 2°54.927 17.3093 3.935288 29.812713 -3.020363
2011-06-06 06:45:59 51°14.586 2°54.916 17.2927 3.931765 29.792417 -3.020363
2011-06-06 06:46:05 51°14.602 2°54.898 17.2645 3.92845 29.770921 -3.020363
2011-06-06 06:46:10 51°14.616 2°54.883 17.2698 3.923476 29.733677 -3.020363
2011-06-06 06:46:15 51°14.629 2°54.869 17.236 3.91757 29.689153 -3.020363
2011-06-06 06:46:20 51°14.644 2°54.853 17.2343 3.915291 29.673448 -3.020363
2011-06-06 06:46:25 51°14.658 2°54.838 17.2107 3.915291 29.673448 -3.020363
2011-06-06 06:46:30 51°14.673 2°54.822 17.1541 3.918503 29.702295 -3.020363
2011-06-06 06:46:35 51°14.687 2°54.808 17.1493 3.924513 29.758866 -3.020363
2011-06-06 06:46:40 51°14.7 2°54.794 17.1137 3.927 29.791032 -3.020363
2011-06-06 06:46:45 51°14.714 2°54.78 17.0972 3.94762 29.975251 -3.020363
2011-06-06 06:46:50 51°14.727 2°54.767 17.1052 3.960055 30.091678 -3.020363
2011-06-06 06:46:55 51°14.74 2°54.754 17.1168 3.960055 30.091678 -3.020363
2011-06-06 06:47:00 51°14.753 2°54.741 17.2381 3.972905 30.216545 -3.020363
2011-06-06 06:47:05 51°14.766 2°54.727 17.0062 3.990418 30.385356 -3.020363
2011-06-06 06:47:10 51°14.779 2°54.714 16.9847 4.004098 30.520137 -3.020363
2011-06-06 06:47:15 51°14.792 2°54.7 16.982 4.017156 30.651085 -3.020363
2011-06-06 06:47:20 51°14.806 2°54.686 16.9913 4.028453 30.764223 -3.020363
2011-06-06 06:47:25 51°14.82 2°54.672 17.0043 4.028453 30.764223 -3.020363
2011-06-06 06:47:30 51°14.834 2°54.657 17.02 4.038092 30.856053 -3.020363
2011-06-06 06:47:35 51°14.848 2°54.642 17.0279 4.046072 30.914183 -3.020363
2011-06-06 06:47:40 51°14.863 2°54.627 17.0166 4.063899 31.090728 -3.020363
2011-06-06 06:47:45 51°14.877 2°54.612 17.0153 4.077996 31.25074 -3.020363
2011-06-06 06:47:50 51°14.892 2°54.597 17.0129 4.083179 31.317476 -3.020363
2011-06-06 06:47:55 51°14.907 2°54.581 17.0061 4.083179 31.317476 -3.020363
2011-06-06 06:48:00 51°14.921 2°54.564 17 4.085252 31.345201 -3.020363
2011-06-06 06:48:05 51°14.936 2°54.547 17.0032 4.086289 31.354068 -3.020363
2011-06-06 06:48:10 51°14.951 2°54.531 17.011 4.086703 31.355113 -3.020363
2011-06-06 06:48:15 51°14.966 2°54.514 17.0069 4.087118 31.359285 -3.020363
2011-06-06 06:48:20 51°14.981 2°54.498 17.0096 4.088569 31.373576 -3.020363
2011-06-06 06:48:25 51°14.995 2°54.481 17.006 4.088569 31.373576 -3.020363
2011-06-06 06:48:30 51°15.011 2°54.464 17.0052 4.089295 31.381661 -3.020363
2011-06-06 06:48:35 51°15.026 2°54.448 17.0005 4.09002 31.393505 -3.020363
2011-06-06 06:48:40 51°15.041 2°54.432 17.0043 4.090642 31.400707 -3.020363
2011-06-06 06:48:45 51°15.056 2°54.416 17.0089 4.091368 31.40817 -3.020363
2011-06-06 06:48:50 51°15.071 2°54.399 17.0032 4.09199 31.412867 -3.020363
2011-06-06 06:48:55 51°15.086 2°54.384 17.0046 4.09199 31.412867 -3.020363
2011-06-06 06:49:00 51°15.102 2°54.368 17.0042 4.092093 31.415634 -3.020363
2011-06-06 06:49:05 51°15.117 2°54.351 17.0049 4.092612 31.421324 -3.020363
2011-06-06 06:49:10 51°15.133 2°54.337 17.011 4.093648 31.431452 -3.020363
2011-06-06 06:49:15 51°15.148 2°54.32 17.0208 4.094167 31.435889 -3.020363
2011-06-06 06:49:20 51°15.163 2°54.303 17.0107 4.093959 31.434114 -3.020363
2011-06-06 06:49:25 51°15.178 2°54.285 17.0131 4.093959 31.434114 -3.020363
2011-06-06 06:49:30 51°15.192 2°54.267 17.0069 4.093752 31.43234 -3.020363
2011-06-06 06:49:35 51°15.206 2°54.248 17.0174 4.093752 31.431712 -3.020363
2011-06-06 06:49:40 51°15.22 2°54.23 17.0128 4.093234 31.427275 -3.020363
2011-06-06 06:49:45 51°15.234 2°54.21 17.0126 4.092612 31.420697 -3.020363
2011-06-06 06:49:51 51°15.251 2°54.188 17.0279 4.091472 31.409057 -3.020363
2011-06-06 06:49:55 51°15.262 2°54.173 17.019 4.091472 31.409057 -3.020363
2011-06-06 06:50:00 51°15.276 2°54.155 17.0102 4.090331 31.398672 -3.020363
2011-06-06 06:50:05 51°15.29 2°54.136 17.002 4.089295 31.391053 -3.020363
2011-06-06 06:50:10 51°15.304 2°54.118 16.9998 4.087947 31.378268 -3.020363
2011-06-06 06:50:15 51°15.318 2°54.099 16.9825 4.086496 31.364598 -3.020363
2011-06-06 06:50:20 51°15.332 2°54.08 16.9681 4.084527 31.347746 -3.020363
2011-06-06 06:50:25 51°15.346 2°54.062 16.9688 4.084527 31.347746 -3.020363
2011-06-06 06:50:30 51°15.361 2°54.045 16.9555 3.999437 30.619664 -3.020363
2011-06-06 06:50:35 51°15.375 2°54.027 16.9469 4.079137 31.301008 -3.020363
2011-06-06 06:50:40 51°15.389 2°54.01 16.9355 4.077997 31.293751 -3.020363
2011-06-06 06:50:45 51°15.404 2°53.992 16.9293 4.080796 31.322693 -3.020363
2011-06-06 06:50:50 51°15.417 2°53.973 16.9263 4.088673 31.399512 -3.020363
2011-06-06 06:50:55 51°15.431 2°53.954 16.9114 4.088673 31.399512 -3.020363
2011-06-06 06:51:00 51°15.444 2°53.935 16.8986 4.092819 31.441921 -3.020363
2011-06-06 06:51:05 51°15.458 2°53.916 16.898 4.099661 31.506821 -3.020363
2011-06-06 06:51:10 51°15.471 2°53.896 16.8849 4.104014 31.551695 -3.020363
2011-06-06 06:51:15 51°15.484 2°53.877 16.8792 4.111892 31.628094 -3.020363
2011-06-06 06:51:20 51°15.497 2°53.856 16.8713 4.117697 31.688031 -3.020363
2011-06-06 06:51:25 51°15.51 2°53.836 16.8715 4.117697 31.688031 -3.020363
2011-06-06 06:51:30 51°15.523 2°53.816 16.8598 4.121429 31.728312 -3.020363
2011-06-06 06:51:35 51°15.536 2°53.796 16.8665 4.12174 31.73987 -3.020363
2011-06-06 06:51:40 51°15.549 2°53.776 16.8648 4.127131 31.793809 -3.020363
2011-06-06 06:51:45 51°15.562 2°53.755 16.8624 4.128167 31.809083 -3.020363
2011-06-06 06:51:50 51°15.575 2°53.735 16.8508 4.128582 31.819655 -3.020363
2011-06-06 06:51:55 51°15.588 2°53.715 16.8521 4.128582 31.819655 -3.020363
2011-06-06 06:52:00 51°15.601 2°53.695 16.846 4.129619 31.834942 -3.020363
2011-06-06 06:52:05 51°15.614 2°53.676 16.8479 4.127131 31.819284 -3.020363
2011-06-06 06:52:10 51°15.628 2°53.657 16.8528 4.125369 31.80859 -3.020363
2011-06-06 06:52:15 51°15.642 2°53.638 16.8383 4.117076 31.739819 -3.020363
2011-06-06 06:52:19 51°15.653 2°53.623 16.8413 4.113241 31.710019 -3.020363
2011-06-06 06:52:25 51°15.669 2°53.601 16.8416 4.113241 31.710019 -3.020363
2011-06-06 06:52:30 51°15.683 2°53.583 16.8482 4.123607 31.803629 -3.020363
2011-06-06 06:52:35 51°15.698 2°53.565 16.8359 4.1234 31.805671 -3.020363
2011-06-06 06:52:40 51°15.711 2°53.548 16.8324 4.121015 31.786432 -3.020363
2011-06-06 06:52:45 51°15.726 2°53.531 16.8435 4.108991 31.684273 -3.020363
2011-06-06 06:52:50 51°15.74 2°53.514 16.8379 4.117284 31.758148 -3.020363
2011-06-06 06:52:55 51°15.755 2°53.498 16.8321 4.117284 31.758148 -3.020363
2011-06-06 06:53:00 51°15.77 2°53.483 16.8268 4.117387 31.761587 -3.020363
2011-06-06 06:53:05 51°15.785 2°53.467 16.8325 4.1149 31.73891 -3.020363
2011-06-06 06:53:10 51°15.801 2°53.453 16.8372 4.11604 31.749993 -3.020363
2011-06-06 06:53:15 51°15.816 2°53.438 16.8303 4.114485 31.739161 -3.020363
2011-06-06 06:53:20 51°15.831 2°53.425 16.8393 4.110235 31.703233 -3.020363
2011-06-06 06:53:26 51°15.85 2°53.409 16.8283 4.110235 31.703233 -3.020363
2011-06-06 06:53:31 51°15.866 2°53.396 16.8268 4.110753 31.708328 -3.020363
2011-06-06 06:53:35 51°15.879 2°53.386 16.8372 4.111997 31.72221 -3.020363
2011-06-06 06:53:39 51°15.891 2°53.376 16.8448 4.112827 31.731255 -3.020363
2011-06-06 06:53:46 51°15.914 2°53.358 16.8322 4.111894 31.723227 -3.020363
2011-06-06 06:53:51 51°15.93 2°53.346 16.8344 4.109302 31.700929 -3.020363
2011-06-06 06:53:55 51°15.942 2°53.336 16.8356 4.109302 31.700929 -3.020363
2011-06-06 06:54:00 51°15.958 2°53.324 16.8405 4.105363 31.667677 -3.020363
2011-06-06 06:54:05 51°15.975 2°53.311 16.8422 4.115418 31.756104 -3.020363
2011-06-06 06:54:10 51°15.991 2°53.299 16.8324 4.116973 31.768212 -3.020363
2011-06-06 06:54:15 51°16.007 2°53.286 16.8235 4.115936 31.758016 -3.020363
2011-06-06 06:54:20 51°16.023 2°53.273 16.8268 4.116662 31.764898 -3.020363
2011-06-06 06:54:25 51°16.038 2°53.26 16.8332 4.116662 31.764898 -3.020363
2011-06-06 06:54:30 51°16.055 2°53.248 16.8322 4.116662 31.764898 -3.020363
2011-06-06 06:54:35 51°16.071 2°53.236 16.8286 4.119357 31.788096 -3.020363
2011-06-06 06:54:40 51°16.087 2°53.223 16.8235 4.121016 31.801096 -3.020363
2011-06-06 06:54:45 51°16.103 2°53.21 16.8173 4.118839 31.784272 -3.020363
2011-06-06 06:54:50 51°16.119 2°53.198 16.8118 4.11604 31.762731 -3.020363
2011-06-06 06:54:55 51°16.135 2°53.184 16.817 4.11604 31.762731 -3.020363
2011-06-06 06:55:00 51°16.15 2°53.17 16.8202 4.115937 31.763114 -3.020363
2011-06-06 06:55:05 51°16.166 2°53.156 16.808 4.120394 31.800846 -3.020363
2011-06-06 06:55:10 51°16.181 2°53.142 16.8061 4.118839 31.789374 -3.020363
2011-06-06 06:55:15 51°16.197 2°53.128 16.8074 4.119046 31.79371 -3.020363
2011-06-06 06:55:20 51°16.213 2°53.113 16.8032 4.116455 31.774587 -3.020363
2011-06-06 06:55:26 51°16.232 2°53.096 16.8005 4.116455 31.774587 -3.020363
2011-06-06 06:55:30 51°16.244 2°53.084 16.808 4.115211 31.766428 -3.020363
2011-06-06 06:55:35 51°16.259 2°53.07 16.7994 4.113138 31.748579 -3.020363
2011-06-06 06:55:40 51°16.275 2°53.055 16.805 4.112205 31.743095 -3.020363
2011-06-06 06:55:45 51°16.291 2°53.041 16.8027 4.113656 31.75814 -3.020363
2011-06-06 06:55:50 51°16.306 2°53.027 16.7982 4.117699 31.795507 -3.020363
2011-06-06 06:55:55 51°16.322 2°53.012 16.7925 4.117699 31.795507 -3.020363
2011-06-06 06:56:00 51°16.338 2°52.998 16.8016 4.116766 31.788748 -3.020363
2011-06-06 06:56:05 51°16.354 2°52.984 16.8021 4.117284 31.795766 -3.020363
2011-06-06 06:56:10 51°16.37 2°52.97 16.7971 4.116144 31.785944 -3.020363
2011-06-06 06:56:15 51°16.386 2°52.957 16.7989 4.116248 31.786837 -3.020363
2011-06-06 06:56:20 51°16.402 2°52.944 16.8027 4.115315 31.779439 -3.020363
2011-06-06 06:56:25 51°16.418 2°52.931 16.8006 4.115315 31.779439 -3.020363
2011-06-06 06:56:30 51°16.435 2°52.919 16.7933 4.118114 31.805464 -3.020363
2011-06-06 06:56:35 51°16.451 2°52.906 16.789 4.117803 31.8047 -3.020363
2011-06-06 06:56:40 51°16.467 2°52.893 16.7858 4.117077 31.798449 -3.020363
2011-06-06 06:56:45 51°16.483 2°52.88 16.7895 4.116663 31.794877 -3.020363
2011-06-06 06:56:51 51°16.503 2°52.864 16.7839 4.117492 31.802021 -3.020363
2011-06-06 06:56:55 51°16.516 2°52.853 16.7832 4.117492 31.802021 -3.020363
2011-06-06 06:57:00 51°16.532 2°52.84 16.7893 4.117699 31.80253 -3.020363
2011-06-06 06:57:05 51°16.548 2°52.826 16.7728 4.117181 31.798065 -3.020363
2011-06-06 06:57:10 51°16.563 2°52.812 16.7737 4.116352 31.794752 -3.020363
2011-06-06 06:57:15 51°16.579 2°52.798 16.7738 4.119358 31.823849 -3.020363
2011-06-06 06:57:19 51°16.592 2°52.787 16.7708 4.120394 31.8347 -3.020363
2011-06-06 06:57:25 51°16.61 2°52.769 16.7649 4.120394 31.8347 -3.020363
2011-06-06 06:57:30 51°16.626 2°52.755 16.7731 4.120705 31.839299 -3.020363
2011-06-06 06:57:35 51°16.642 2°52.74 16.7571 4.120602 31.839045 -3.020363
2011-06-06 06:57:40 51°16.658 2°52.726 16.7472 4.12309 31.86305 -3.020363
2011-06-06 06:57:45 51°16.673 2°52.712 16.7489 4.123297 31.867398 -3.020363
2011-06-06 06:57:50 51°16.689 2°52.697 16.7494 4.124956 31.88362 -3.020363
2011-06-06 06:57:55 51°16.705 2°52.683 16.7479 4.124956 31.88362 -3.020363
2011-06-06 06:58:00 51°16.72 2°52.669 16.7672 4.127547 31.909173 -3.020363
2011-06-06 06:58:06 51°16.74 2°52.655 16.7609 4.127547 31.911097 -3.020363
2011-06-06 06:58:10 51°16.753 2°52.647 16.7409 4.131694 31.950715 -3.020363
2011-06-06 06:58:15 51°16.769 2°52.637 16.7409 4.132523 31.962368 -3.020363
2011-06-06 06:58:20 51°16.786 2°52.629 16.7485 4.13045 31.947049 -3.020363
2011-06-06 06:58:25 51°16.803 2°52.621 16.7442 4.13045 31.947049 -3.020363
2011-06-06 06:58:30 51°16.82 2°52.615 16.7454 4.134182 31.980538 -3.020363
2011-06-06 06:58:35 51°16.837 2°52.609 16.7506 4.137188 32.005841 -3.020363
2011-06-06 06:58:40 51°16.854 2°52.604 16.7434 4.136047 31.994712 -3.020363
2011-06-06 06:58:45 51°16.871 2°52.599 16.7401 4.139883 32.032327 -3.020363
2011-06-06 06:58:50 51°16.888 2°52.595 16.7451 4.141853 32.05191 -3.020363
2011-06-06 06:58:55 51°16.905 2°52.59 16.7401 4.141853 32.05191 -3.020363
2011-06-06 06:59:00 51°16.923 2°52.586 16.7348 4.141127 32.046289 -3.020363
2011-06-06 06:59:05 51°16.94 2°52.582 16.7451 4.140609 32.041169 -3.020363
2011-06-06 06:59:11 51°16.961 2°52.578 16.743 4.142993 32.062401 -3.020363
2011-06-06 06:59:15 51°16.975 2°52.575 16.7267 4.1432 32.065481 -3.020363
2011-06-06 06:59:20 51°16.992 2°52.571 16.7318 4.144755 32.0802 -3.020363
2011-06-06 06:59:25 51°17.009 2°52.567 16.7264 4.144755 32.0802 -3.020363
2011-06-06 06:59:30 51°17.026 2°52.562 16.7374 4.145792 32.090444 -3.020363
2011-06-06 06:59:35 51°17.043 2°52.557 16.7253 4.14517 32.086363 -3.020363
2011-06-06 06:59:40 51°17.061 2°52.553 16.7284 4.141542 32.055028 -3.020363
2011-06-06 06:59:45 51°17.078 2°52.548 16.724 4.144652 32.083177 -3.020363
2011-06-06 06:59:50 51°17.095 2°52.542 16.7243 4.144859 32.088196 -3.020363
2011-06-06 06:59:55 51°17.112 2°52.537 16.7248 4.144859 32.088196 -3.020363
2011-06-06 06:59:59 51°17.126 2°52.533 16.7209 4.144652 32.088343 -3.020363
2011-06-06 07:00:05 51°17.147 2°52.525 16.7254 4.14289 32.07441 -3.020363
2011-06-06 07:00:10 51°17.163 2°52.519 16.712 4.142371 32.070578 -3.020363
2011-06-06 07:00:15 51°17.18 2°52.512 16.706 4.14206 32.069182 -3.020363
2011-06-06 07:00:20 51°17.197 2°52.505 16.7158 4.139572 32.049626 -3.020363
2011-06-06 07:00:25 51°17.214 2°52.498 16.7047 4.139572 32.049626 -3.020363
2011-06-06 07:00:30 51°17.231 2°52.492 16.7031 4.140194 32.055644 -3.020363
2011-06-06 07:00:35 51°17.248 2°52.485 16.6879 4.141024 32.064099 -3.020363
2011-06-06 07:00:40 51°17.265 2°52.479 16.6881 4.140091 32.057329 -3.020363
2011-06-06 07:00:45 51°17.282 2°52.472 16.6837 4.14092 32.067722 -3.020363
2011-06-06 07:00:50 51°17.299 2°52.466 16.6809 4.13978 32.059805 -3.020363
2011-06-06 07:00:55 51°17.316 2°52.46 16.6888 4.13978 32.059805 -3.020363
2011-06-06 07:01:00 51°17.334 2°52.454 16.6663 4.139676 32.060201 -3.020363
2011-06-06 07:01:05 51°17.351 2°52.449 16.6667 4.141439 32.078659 -3.020363
2011-06-06 07:01:10 51°17.368 2°52.445 16.657 4.141853 32.088058 -3.020363
2011-06-06 07:01:15 51°17.386 2°52.44 16.659 4.142683 32.09846 -3.020363
2011-06-06 07:01:20 51°17.403 2°52.436 16.642 4.146933 32.141036 -3.020363
2011-06-06 07:01:25 51°17.421 2°52.431 16.6373 4.146933 32.141036 -3.020363
2011-06-06 07:01:30 51°17.438 2°52.427 16.6414 4.146518 32.139393 -3.020363
2011-06-06 07:01:35 51°17.455 2°52.422 16.6276 4.147866 32.155584 -3.020363
2011-06-06 07:01:40 51°17.472 2°52.418 16.6194 4.149214 32.173079 -3.020363
2011-06-06 07:01:45 51°17.489 2°52.413 16.6231 4.150147 32.186343 -3.020363
2011-06-06 07:01:50 51°17.506 2°52.407 16.6135 4.150458 32.193578 -3.020363
2011-06-06 07:01:55 51°17.523 2°52.402 16.5975 4.150458 32.193578 -3.020363
2011-06-06 07:02:00 51°17.54 2°52.397 16.5864 4.152428 32.217775 -3.020363
2011-06-06 07:02:05 51°17.557 2°52.392 16.5778 4.152635 32.22347 -3.020363
2011-06-06 07:02:10 51°17.574 2°52.387 16.5705 4.153361 32.234956 -3.020363
2011-06-06 07:02:15 51°17.591 2°52.383 16.568 4.155434 32.257471 -3.020363
2011-06-06 07:02:20 51°17.608 2°52.377 16.5639 4.154812 32.25664 -3.020363
2011-06-06 07:02:25 51°17.625 2°52.373 16.5733 4.154812 32.25664 -3.020363
2011-06-06 07:02:30 51°17.642 2°52.368 16.5649 4.156886 32.283728 -3.020363
2011-06-06 07:02:35 51°17.659 2°52.363 16.5686 4.158441 32.305035 -3.020363
2011-06-06 07:02:39 51°17.672 2°52.359 16.577 4.159478 32.325776 -3.020363
2011-06-06 07:02:45 51°17.693 2°52.353 16.5717 4.161136 32.346046 -3.020363
2011-06-06 07:02:50 51°17.71 2°52.348 16.5659 4.161862 32.356266 -3.020363
2011-06-06 07:02:55 51°17.727 2°52.343 16.569 4.161862 32.356266 -3.020363
2011-06-06 07:03:00 51°17.744 2°52.338 16.567 4.163521 32.375896 -3.020363
2011-06-06 07:03:05 51°17.761 2°52.333 16.5834 4.164558 32.387513 -3.020363
2011-06-06 07:03:10 51°17.778 2°52.328 16.5804 4.165387 32.396022 -3.020363
2011-06-06 07:03:15 51°17.794 2°52.323 16.5677 4.165594 32.397167 -3.020363
2011-06-06 07:03:20 51°17.811 2°52.317 16.5656 4.16632 32.404122 -3.020363
2011-06-06 07:03:25 51°17.828 2°52.311 16.5575 4.16632 32.404122 -3.020363
2011-06-06 07:03:31 51°17.848 2°52.303 16.568 4.166424 32.406332 -3.020363
2011-06-06 07:03:35 51°17.862 2°52.298 16.5682 4.166735 32.409033 -3.020363
2011-06-06 07:03:40 51°17.879 2°52.29 16.5755 4.166838 32.408622 -3.020363
2011-06-06 07:03:45 51°17.895 2°52.283 16.5679 4.167357 32.411811 -3.020363
2011-06-06 07:03:50 51°17.912 2°52.275 16.5702 4.167253 32.412222 -3.020363
2011-06-06 07:03:55 51°17.929 2°52.268 16.5663 4.167253 32.412222 -3.020363
2011-06-06 07:04:00 51°17.946 2°52.26 16.5698 4.167979 32.422456 -3.020363
2011-06-06 07:04:05 51°17.963 2°52.252 16.5665 4.167668 32.420411 -3.020363
2011-06-06 07:04:10 51°17.979 2°52.245 16.5727 4.167149 32.414599 -3.020363
2011-06-06 07:04:15 51°17.996 2°52.238 16.5663 4.166838 32.410588 -3.020363
2011-06-06 07:04:20 51°18.013 2°52.23 16.5667 4.166942 32.411488 -3.020363
2011-06-06 07:04:25 51°18.03 2°52.223 16.5612 4.166942 32.411488 -3.020363
2011-06-06 07:04:30 51°18.047 2°52.217 16.5699 4.166527 32.407888 -3.020363
2011-06-06 07:04:35 51°18.064 2°52.21 16.5685 4.166424 32.406332 -3.020363
2011-06-06 07:04:40 51°18.081 2°52.204 16.5608 4.166735 32.409033 -3.020363
2011-06-06 07:04:46 51°18.101 2°52.196 16.5657 4.166631 32.408788 -3.020363
2011-06-06 07:04:50 51°18.115 2°52.19 16.5667 4.166113 32.404288 -3.020363
2011-06-06 07:04:55 51°18.132 2°52.183 16.5696 4.166113 32.404288 -3.020363
2011-06-06 07:05:00 51°18.149 2°52.176 16.5683 4.166113 32.406254 -3.020363
2011-06-06 07:05:05 51°18.166 2°52.169 16.5697 4.165802 32.404209 -3.020363
2011-06-06 07:05:10 51°18.183 2°52.162 16.5828 4.165283 32.399709 -3.020363
2011-06-06 07:05:15 51°18.199 2°52.155 16.5914 4.164869 32.396764 -3.020363
2011-06-06 07:05:19 51°18.213 2°52.149 16.5881 4.164558 32.394719 -3.020363
2011-06-06 07:05:25 51°18.232 2°52.139 16.5741 4.164558 32.394719 -3.020363
2011-06-06 07:05:30 51°18.249 2°52.132 16.5778 4.163936 32.388008 -3.020363
2011-06-06 07:05:35 51°18.266 2°52.125 16.5757 4.163625 32.383998 -3.020363
2011-06-06 07:05:40 51°18.283 2°52.119 16.5724 4.163936 32.385388 -3.020363
2011-06-06 07:05:45 51°18.3 2°52.113 16.5706 4.163003 32.374015 -3.020363
2011-06-06 07:05:50 51°18.317 2°52.107 16.5689 4.162692 32.368043 -3.020363
2011-06-06 07:05:55 51°18.333 2°52.101 16.5625 4.162692 32.368043 -3.020363
2011-06-06 07:06:00 51°18.351 2°52.096 16.5641 4.162692 32.367389 -3.020363
2011-06-06 07:06:05 51°18.367 2°52.091 16.5654 4.162795 32.370252 -3.020363
2011-06-06 07:06:10 51°18.384 2°52.086 16.5553 4.162795 32.370252 -3.020363
2011-06-06 07:06:15 51°18.402 2°52.081 16.5456 4.162899 32.371806 -3.020363
2011-06-06 07:06:20 51°18.419 2°52.076 16.5421 4.163521 32.379169 -3.020363
2011-06-06 07:06:25 51°18.436 2°52.071 16.5356 4.163521 32.379169 -3.020363
2011-06-06 07:06:30 51°18.453 2°52.065 16.5374 4.163521 32.381133 -3.020363
2011-06-06 07:06:35 51°18.47 2°52.059 16.5308 4.163936 32.387353 -3.020363
2011-06-06 07:06:40 51°18.487 2°52.053 16.5237 4.164039 32.390218 -3.020363
2011-06-06 07:06:45 51°18.504 2°52.046 16.5189 4.16404 32.394805 -3.020363
2011-06-06 07:06:50 51°18.52 2°52.04 16.5125 4.164662 32.405451 -3.020363
2011-06-06 07:06:55 51°18.537 2°52.032 16.5159 4.164662 32.405451 -3.020363
2011-06-06 07:07:00 51°18.554 2°52.024 16.5054 4.16518 32.414544 -3.020363
2011-06-06 07:07:05 51°18.571 2°52.017 16.5141 4.165076 32.416923 -3.020363
2011-06-06 07:07:10 51°18.588 2°52.008 16.5014 4.165388 32.422906 -3.020363
2011-06-06 07:07:15 51°18.604 2°52 16.4969 4.165802 32.431105 -3.020363
2011-06-06 07:07:20 51°18.621 2°51.993 16.5156 4.166424 32.441107 -3.020363
2011-06-06 07:07:26 51°18.641 2°51.984 16.4992 4.166424 32.441107 -3.020363
2011-06-06 07:07:30 51°18.654 2°51.978 16.4944 4.166113 32.444317 -3.020363
2011-06-06 07:07:35 51°18.671 2°51.971 16.4919 4.166425 32.450307 -3.020363
2011-06-06 07:07:40 51°18.688 2°51.964 16.4903 4.166528 32.45318 -3.020363
2011-06-06 07:07:45 51°18.705 2°51.957 16.4937 4.166632 32.457369 -3.020363
2011-06-06 07:07:50 51°18.722 2°51.95 16.4925 4.166632 32.46 -3.020363
2011-06-06 07:07:55 51°18.738 2°51.944 16.4928 4.166632 32.46 -3.020363
2011-06-06 07:07:59 51°18.752 2°51.939 16.498 4.166839 32.463776 -3.020363
2011-06-06 07:08:05 51°18.772 2°51.931 16.4895 4.166736 32.464848 -3.020363
2011-06-06 07:08:10 51°18.789 2°51.925 16.4829 4.166839 32.467723 -3.020363
2011-06-06 07:08:15 51°18.806 2°51.919 16.4885 4.166736 32.468796 -3.020363
2011-06-06 07:08:20 51°18.823 2°51.914 16.487 4.166632 32.468552 -3.020363
2011-06-06 07:08:25 51°18.84 2°51.909 16.4828 4.166632 32.468552 -3.020363
2011-06-06 07:08:30 51°18.857 2°51.903 16.4879 4.166425 32.467407 -3.020363
2011-06-06 07:08:35 51°18.874 2°51.898 16.4847 4.171297 32.509793 -3.020363
2011-06-06 07:08:40 51°18.891 2°51.893 16.4812 4.17109 32.508648 -3.020363
2011-06-06 07:08:45 51°18.908 2°51.888 16.4813 4.17109 32.510625 -3.020363
2011-06-06 07:08:50 51°18.925 2°51.882 16.4876 4.170779 32.509237 -3.020363
2011-06-06 07:08:55 51°18.942 2°51.877 16.484 4.170779 32.509237 -3.020363
2011-06-06 07:09:00 51°18.959 2°51.871 16.4792 4.170675 32.509653 -3.020363
2011-06-06 07:09:05 51°18.976 2°51.865 16.475 4.170364 32.507606 -3.020363
2011-06-06 07:09:10 51°18.993 2°51.858 16.473 4.170261 32.507363 -3.020363
2011-06-06 07:09:15 51°19.01 2°51.852 16.4773 4.170157 32.508438 -3.020363
2011-06-06 07:09:20 51°19.027 2°51.845 16.4791 4.16995 32.506634 -3.020363
2011-06-06 07:09:25 51°19.044 2°51.838 16.4677 4.16995 32.506634 -3.020363
2011-06-06 07:09:30 51°19.061 2°51.831 16.4665 4.169846 32.505732 -3.020363
2011-06-06 07:09:35 51°19.078 2°51.824 16.4779 4.169742 32.505489 -3.020363
2011-06-06 07:09:40 51°19.095 2°51.816 16.4737 4.169742 32.508125 -3.020363
2011-06-06 07:09:45 51°19.111 2°51.809 16.4707 4.169639 32.508542 -3.020363
2011-06-06 07:09:50 51°19.128 2°51.801 16.4675 4.169431 32.506737 -3.020363
2011-06-06 07:09:55 51°19.145 2°51.794 16.4731 4.169431 32.506737 -3.020363
2011-06-06 07:10:00 51°19.161 2°51.786 16.4815 4.169224 32.50691 -3.020363
2011-06-06 07:10:05 51°19.178 2°51.779 16.4728 4.168913 32.50684 -3.020363
2011-06-06 07:10:11 51°19.198 2°51.77 16.4723 4.168187 32.501843 -3.020363
2011-06-06 07:10:15 51°19.211 2°51.764 16.4809 4.167565 32.495769 -3.020363
2011-06-06 07:10:20 51°19.228 2°51.757 16.4744 4.166943 32.491674 -3.020363
2011-06-06 07:10:25 51°19.245 2°51.75 16.4778 4.166943 32.491674 -3.020363
2011-06-06 07:10:30 51°19.261 2°51.743 16.4842 4.16601 32.484212 -3.020363
2011-06-06 07:10:35 51°19.277 2°51.735 16.4858 4.165077 32.474774 -3.020363
2011-06-06 07:10:39 51°19.29 2°51.73 16.491 4.164041 32.464435 -3.020363
2011-06-06 07:10:45 51°19.309 2°51.721 16.4788 4.163108 32.455657 -3.020363
2011-06-06 07:10:50 51°19.326 2°51.715 16.4756 4.162071 32.44532 -3.020363
2011-06-06 07:10:55 51°19.343 2°51.709 16.4865 4.162071 32.44532 -3.020363
2011-06-06 07:11:00 51°19.359 2°51.703 16.485 4.161345 32.439006 -3.020363
2011-06-06 07:11:05 51°19.377 2°51.697 16.4827 4.160309 32.427356 -3.020363
2011-06-06 07:11:10 51°19.394 2°51.691 16.4773 4.159376 32.417924 -3.020363
2011-06-06 07:11:15 51°19.411 2°51.685 16.4826 4.158857 32.412101 -3.020363
2011-06-06 07:11:20 51°19.428 2°51.68 16.4834 4.158132 32.406445 -3.020363
2011-06-06 07:11:26 51°19.449 2°51.672 16.4843 4.158132 32.406445 -3.020363
2011-06-06 07:11:30 51°19.462 2°51.668 16.4817 4.157406 32.40079 -3.020363
2011-06-06 07:11:35 51°19.479 2°51.662 16.4842 4.15668 32.393164 -3.020363
2011-06-06 07:11:40 51°19.497 2°51.656 16.4838 4.155955 32.387509 -3.020363
2011-06-06 07:11:45 51°19.514 2°51.65 16.4779 4.155125 32.380953 -3.020363
2011-06-06 07:11:50 51°19.531 2°51.644 16.4765 4.153985 32.371035 -3.020363
2011-06-06 07:11:55 51°19.548 2°51.638 16.4869 4.153985 32.371035 -3.020363
2011-06-06 07:12:00 51°19.565 2°51.632 16.4829 4.1544 32.373985 -3.020363
2011-06-06 07:12:05 51°19.582 2°51.626 16.4896 4.152741 32.359559 -3.020363
2011-06-06 07:12:10 51°19.599 2°51.62 16.4855 4.151808 32.35079 -3.020363
2011-06-06 07:12:15 51°19.616 2°51.614 16.4882 4.150979 32.343578 -3.020363
2011-06-06 07:12:20 51°19.633 2°51.608 16.4933 4.151186 32.346692 -3.020363
2011-06-06 07:12:25 51°19.65 2°51.602 16.4914 4.151186 32.346692 -3.020363
2011-06-06 07:12:30 51°19.667 2°51.595 16.4924 4.150979 32.344889 -3.020363
2011-06-06 07:12:35 51°19.684 2°51.589 16.4985 4.149735 32.33276 -3.020363
2011-06-06 07:12:40 51°19.701 2°51.582 16.5054 4.150149 32.335055 -3.020363
2011-06-06 07:12:45 51°19.719 2°51.576 16.5018 4.151393 32.345216 -3.020363
2011-06-06 07:12:50 51°19.736 2°51.57 16.4995 4.150771 32.338497 -3.020363
2011-06-06 07:12:55 51°19.753 2°51.563 16.4983 4.150771 32.338497 -3.020363
2011-06-06 07:13:00 51°19.77 2°51.555 16.5001 4.150253 32.332679 -3.020363
2011-06-06 07:13:05 51°19.786 2°51.548 16.503 4.149838 32.327763 -3.020363
2011-06-06 07:13:10 51°19.803 2°51.54 16.5041 4.149631 32.323995 -3.020363
2011-06-06 07:13:15 51°19.82 2°51.532 16.4966 4.149424 32.319572 -3.020363
2011-06-06 07:13:19 51°19.834 2°51.525 16.4983 4.14932 32.317361 -3.020363
2011-06-06 07:13:25 51°19.854 2°51.516 16.4946 4.14932 32.317361 -3.020363
2011-06-06 07:13:30 51°19.871 2°51.509 16.4971 4.149113 32.316214 -3.020363
2011-06-06 07:13:35 51°19.888 2°51.501 16.4902 4.148802 32.313511 -3.020363
2011-06-06 07:13:40 51°19.905 2°51.495 16.4839 4.148698 32.310645 -3.020363
2011-06-06 07:13:45 51°19.922 2°51.487 16.4789 4.14849 32.308188 -3.020363
2011-06-06 07:13:50 51°19.939 2°51.48 16.4682 4.148594 32.309744 -3.020363
2011-06-06 07:13:55 51°19.956 2°51.473 16.4604 4.148594 32.309744 -3.020363
2011-06-06 07:14:00 51°19.973 2°51.466 16.4561 4.148802 32.312856 -3.020363
2011-06-06 07:14:05 51°19.99 2°51.459 16.4369 4.148905 32.315067 -3.020363
2011-06-06 07:14:10 51°20.008 2°51.452 16.4355 4.149216 32.31908 -3.020363
2011-06-06 07:14:15 51°20.025 2°51.445 16.4312 4.149527 32.324404 -3.020363
2011-06-06 07:14:20 51°20.041 2°51.438 16.422 4.149942 32.333252 -3.020363
2011-06-06 07:14:25 51°20.058 2°51.431 16.4193 4.149942 32.333252 -3.020363
2011-06-06 07:14:30 51°20.074 2°51.424 16.4043 4.150771 32.34571 -3.020363
2011-06-06 07:14:35 51°20.091 2°51.418 16.3939 4.151082 32.354319 -3.020363
2011-06-06 07:14:40 51°20.108 2°51.412 16.3855 4.152223 32.372775 -3.020363
2011-06-06 07:14:45 51°20.125 2°51.405 16.3784 4.153156 32.389436 -3.020363
2011-06-06 07:14:50 51°20.143 2°51.399 16.3803 4.153985 32.402574 -3.020363
2011-06-06 07:14:55 51°20.16 2°51.392 16.374 4.153985 32.402574 -3.020363
2011-06-06 07:15:00 51°20.177 2°51.386 16.3723 4.154815 32.416374 -3.020363
2011-06-06 07:15:05 51°20.194 2°51.379 16.3646 4.155437 32.427058 -3.020363
2011-06-06 07:15:10 51°20.212 2°51.372 16.3572 4.15637 32.44375 -3.020363
2011-06-06 07:15:15 51°20.229 2°51.366 16.3527 4.156992 32.459061 -3.020363
2011-06-06 07:15:20 51°20.246 2°51.36 16.3515 4.157407 32.469934 -3.020363
2011-06-06 07:15:25 51°20.263 2°51.354 16.3448 4.157407 32.469934 -3.020363
2011-06-06 07:15:30 51°20.28 2°51.348 16.3352 4.157822 32.478831 -3.020363
2011-06-06 07:15:35 51°20.298 2°51.341 16.3329 4.158133 32.485505 -3.020363
2011-06-06 07:15:40 51°20.315 2°51.335 16.3285 4.158444 32.492843 -3.020363
2011-06-06 07:15:45 51°20.332 2°51.329 16.3189 4.159066 32.504218 -3.020363
2011-06-06 07:15:50 51°20.348 2°51.323 16.3192 4.159377 32.510899 -3.020363
2011-06-06 07:15:55 51°20.365 2°51.316 16.3127 4.159377 32.510899 -3.020363
2011-06-06 07:15:59 51°20.379 2°51.311 16.3035 4.159896 32.519391 -3.020363
2011-06-06 07:16:05 51°20.399 2°51.303 16.3062 4.160829 32.533491 -3.020363
2011-06-06 07:16:10 51°20.416 2°51.297 16.2943 4.161554 32.545124 -3.020363
2011-06-06 07:16:15 51°20.433 2°51.291 16.2957 4.16228 32.556098 -3.020363
2011-06-06 07:16:20 51°20.45 2°51.285 16.2849 4.163213 32.56955 -3.020363
2011-06-06 07:16:25 51°20.467 2°51.278 16.281 4.163213 32.56955 -3.020363
2011-06-06 07:16:30 51°20.484 2°51.272 16.2853 4.163939 32.581196 -3.020363
2011-06-06 07:16:35 51°20.501 2°51.266 16.2828 4.164768 32.593751 -3.020363
2011-06-06 07:16:40 51°20.518 2°51.26 16.2519 4.165391 32.6045 -3.020363
2011-06-06 07:16:45 51°20.535 2°51.254 16.2382 4.165909 32.613016 -3.020363
2011-06-06 07:16:51 51°20.556 2°51.246 16.2333 4.16622 32.620388 -3.020363
2011-06-06 07:16:55 51°20.569 2°51.241 16.2299 4.16622 32.620388 -3.020363
2011-06-06 07:17:00 51°20.586 2°51.234 16.2311 4.166738 32.630905 -3.020363
2011-06-06 07:17:05 51°20.603 2°51.227 16.2352 4.16705 32.636286 -3.020363
2011-06-06 07:17:10 51°20.62 2°51.22 16.235 4.167464 32.640577 -3.020363
2011-06-06 07:17:15 51°20.637 2°51.212 16.2376 4.168605 32.654543 -3.020363
2011-06-06 07:17:19 51°20.65 2°51.206 16.2389 4.169745 32.675178 -3.020363
2011-06-06 07:17:25 51°20.67 2°51.196 16.2401 4.169745 32.675178 -3.020363
2011-06-06 07:17:30 51°20.687 2°51.188 16.242 4.169953 32.685662 -3.020363
2011-06-06 07:17:35 51°20.704 2°51.18 16.2445 4.169642 32.690279 -3.020363
2011-06-06 07:17:40 51°20.721 2°51.172 16.2442 4.169227 32.687984 -3.020363
2011-06-06 07:17:45 51°20.738 2°51.164 16.2445 4.16902 32.688171 -3.020363
2011-06-06 07:17:50 51°20.755 2°51.156 16.2448 4.168916 32.687931 -3.020363
2011-06-06 07:17:55 51°20.772 2°51.148 16.2458 4.168916 32.687931 -3.020363
2011-06-06 07:18:00 51°20.789 2°51.141 16.2454 4.168916 32.687264 -3.020363
2011-06-06 07:18:05 51°20.806 2°51.133 16.25 4.169123 32.689079 -3.020363
2011-06-06 07:18:10 51°20.823 2°51.125 16.2531 4.169227 32.688652 -3.020363
2011-06-06 07:18:15 51°20.84 2°51.118 16.2485 4.169642 32.692281 -3.020363
2011-06-06 07:18:19 51°20.853 2°51.112 16.2504 4.170056 32.694576 -3.020363
2011-06-06 07:18:25 51°20.874 2°51.104 16.2492 4.170056 32.694576 -3.020363
2011-06-06 07:18:30 51°20.891 2°51.098 16.2505 4.170471 32.698206 -3.020363
2011-06-06 07:18:35 51°20.908 2°51.092 16.2556 4.170886 32.7005 -3.020363
2011-06-06 07:18:40 51°20.925 2°51.086 16.2572 4.171197 32.701888 -3.020363
2011-06-06 07:18:45 51°20.943 2°51.08 16.2622 4.171508 32.703942 -3.020363
2011-06-06 07:18:50 51°20.96 2°51.074 16.2643 4.171819 32.705329 -3.020363
2011-06-06 07:18:55 51°20.977 2°51.068 16.2643 4.171819 32.705329 -3.020363
2011-06-06 07:19:00 51°20.994 2°51.063 16.27 4.17213 32.707384 -3.020363
2011-06-06 07:19:05 51°21.011 2°51.057 16.2697 4.172337 32.708531 -3.020363
2011-06-06 07:19:10 51°21.028 2°51.051 16.2744 4.172648 32.710585 -3.020363
2011-06-06 07:19:15 51°21.045 2°51.045 16.2714 4.172752 32.710157 -3.020363
2011-06-06 07:19:19 51°21.058 2°51.04 16.2758 4.172959 32.709969 -3.020363
2011-06-06 07:19:25 51°21.079 2°51.032 16.2727 4.172959 32.709969 -3.020363
2011-06-06 07:19:30 51°21.096 2°51.025 16.2763 4.173063 32.708206 -3.020363
2011-06-06 07:19:35 51°21.113 2°51.018 16.2795 4.17327 32.708019 -3.020363
2011-06-06 07:19:40 51°21.129 2°51.01 16.2779 4.173374 32.706924 -3.020363
2011-06-06 07:19:45 51°21.146 2°51.002 16.2764 4.173581 32.706736 -3.020363
2011-06-06 07:19:50 51°21.163 2°50.994 16.2833 4.173892 32.706788 -3.020363
2011-06-06 07:19:55 51°21.18 2°50.986 16.2729 4.173892 32.706788 -3.020363
2011-06-06 07:20:00 51°21.197 2°50.978 16.2801 4.173996 32.707028 -3.020363
2011-06-06 07:20:05 51°21.214 2°50.97 16.2794 4.174203 32.708174 -3.020363
2011-06-06 07:20:10 51°21.231 2°50.962 16.2763 4.17441 32.709321 -3.020363
2011-06-06 07:20:15 51°21.248 2°50.955 16.2742 4.174618 32.710468 -3.020363
2011-06-06 07:20:20 51°21.265 2°50.948 16.2713 4.174825 32.710947 -3.020363
2011-06-06 07:20:25 51°21.282 2°50.94 16.2703 4.174825 32.710947 -3.020363
2011-06-06 07:20:30 51°21.299 2°50.934 16.273 4.175032 32.711427 -3.020363
2011-06-06 07:20:35 51°21.316 2°50.928 16.2771 4.175032 32.712094 -3.020363
2011-06-06 07:20:39 51°21.33 2°50.923 16.2646 4.175136 32.713001 -3.020363
2011-06-06 07:20:45 51°21.351 2°50.916 16.2685 4.175239 32.71324 -3.020363
2011-06-06 07:20:50 51°21.368 2°50.91 16.266 4.17524 32.713907 -3.020363
2011-06-06 07:20:55 51°21.386 2°50.904 16.2663 4.17524 32.713907 -3.020363
2011-06-06 07:21:00 51°21.403 2°50.899 16.2619 4.175343 32.714814 -3.020363
2011-06-06 07:21:05 51°21.421 2°50.894 16.2613 4.175447 32.717056 -3.020363
2011-06-06 07:21:10 51°21.438 2°50.888 16.2644 4.175343 32.717484 -3.020363
2011-06-06 07:21:15 51°21.456 2°50.882 16.2597 4.175032 32.716765 -3.020363
2011-06-06 07:21:20 51°21.473 2°50.876 16.2623 4.174825 32.716286 -3.020363
2011-06-06 07:21:25 51°21.49 2°50.871 16.2611 4.174825 32.716286 -3.020363
2011-06-06 07:21:30 51°21.507 2°50.865 16.2555 4.174618 32.715806 -3.020363
2011-06-06 07:21:35 51°21.525 2°50.859 16.2601 4.17441 32.715327 -3.020363
2011-06-06 07:21:39 51°21.539 2°50.855 16.2589 4.174307 32.715755 -3.020363
2011-06-06 07:21:45 51°21.56 2°50.848 16.2618 4.174203 32.715515 -3.020363
2011-06-06 07:21:50 51°21.577 2°50.841 16.2575 4.174099 32.715276 -3.020363
2011-06-06 07:21:55 51°21.594 2°50.835 16.2525 4.174099 32.715276 -3.020363
2011-06-06 07:22:00 51°21.612 2°50.828 16.2542 4.174099 32.715276 -3.020363
2011-06-06 07:22:05 51°21.63 2°50.82 16.258 4.174099 32.715943 -3.020363
2011-06-06 07:22:10 51°21.647 2°50.813 16.2514 4.173996 32.717039 -3.020363
2011-06-06 07:22:15 51°21.665 2°50.805 16.2492 4.173996 32.717706 -3.020363
2011-06-06 07:22:20 51°21.682 2°50.798 16.2535 4.174203 32.719521 -3.020363
2011-06-06 07:22:25 51°21.699 2°50.79 16.25 4.174203 32.719521 -3.020363
2011-06-06 07:22:30 51°21.717 2°50.783 16.2457 4.174307 32.721096 -3.020363
2011-06-06 07:22:35 51°21.734 2°50.775 16.2462 4.174514 32.723578 -3.020363
2011-06-06 07:22:39 51°21.748 2°50.77 16.2388 4.174721 32.725393 -3.020363
2011-06-06 07:22:45 51°21.77 2°50.761 16.2262 4.175032 32.729451 -3.020363
2011-06-06 07:22:50 51°21.787 2°50.754 16.2146 4.17524 32.732602 -3.020363
2011-06-06 07:22:55 51°21.804 2°50.748 16.2152 4.17524 32.732602 -3.020363
2011-06-06 07:23:00 51°21.822 2°50.741 16.2065 4.175966 32.739622 -3.020363
2011-06-06 07:23:05 51°21.839 2°50.735 16.1963 4.176588 32.747072 -3.020363
2011-06-06 07:23:10 51°21.856 2°50.729 16.1896 4.17721 32.753854 -3.020363
2011-06-06 07:23:15 51°21.874 2°50.724 16.1771 4.177624 32.760159 -3.020363
2011-06-06 07:23:20 51°21.891 2°50.718 16.1752 4.177728 32.76575 -3.020363
2011-06-06 07:23:25 51°21.908 2°50.712 16.168 4.177728 32.76575 -3.020363
2011-06-06 07:23:31 51°21.929 2°50.705 16.162 4.177521 32.771295 -3.020363
2011-06-06 07:23:35 51°21.943 2°50.7 16.1514 4.177314 32.774834 -3.020363
2011-06-06 07:23:40 51°21.96 2°50.694 16.144 4.177832 32.787412 -3.020363
2011-06-06 07:23:45 51°21.977 2°50.687 16.1301 4.179284 32.806834 -3.020363
2011-06-06 07:23:50 51°21.995 2°50.679 16.1182 4.18115 32.831243 -3.020363
2011-06-06 07:23:55 51°22.011 2°50.672 16.1129 4.18115 32.831243 -3.020363
2011-06-06 07:23:59 51°22.025 2°50.665 16.1078 4.182912 32.854085 -3.020363
2011-06-06 07:24:05 51°22.046 2°50.656 16.1058 4.183846 32.869663 -3.020363
2011-06-06 07:24:10 51°22.063 2°50.648 16.1065 4.18426 32.878681 -3.020363
2011-06-06 07:24:15 51°22.08 2°50.64 16.105 4.184053 32.884263 -3.020363
2011-06-06 07:24:20 51°22.097 2°50.633 16.1028 4.185194 32.9037 -3.020363
2011-06-06 07:24:25 51°22.114 2°50.625 16.0986 4.185194 32.9037 -3.020363
2011-06-06 07:24:30 51°22.131 2°50.617 16.0952 4.188097 32.939302 -3.020363
2011-06-06 07:24:35 51°22.148 2°50.61 16.0919 4.189963 32.961093 -3.020363
2011-06-06 07:24:40 51°22.165 2°50.602 16.0902 4.190274 32.969904 -3.020363
2011-06-06 07:24:45 51°22.182 2°50.595 16.0912 4.186957 32.94548 -3.020363
2011-06-06 07:24:50 51°22.198 2°50.589 16.087 4.18395 32.922438 -3.020363
2011-06-06 07:24:55 51°22.215 2°50.583 16.0847 4.18395 32.922438 -3.020363
2011-06-06 07:24:59 51°22.229 2°50.578 16.0847 4.182602 32.913294 -3.020363
2011-06-06 07:25:05 51°22.249 2°50.571 16.0839 4.183328 32.923045 -3.020363
2011-06-06 07:25:10 51°22.265 2°50.564 16.0785 4.184883 32.940088 -3.020363
2011-06-06 07:25:15 51°22.283 2°50.558 16.0785 4.186438 32.955784 -3.020363
2011-06-06 07:25:20 51°22.299 2°50.552 16.0746 4.188097 32.973747 -3.020363
2011-06-06 07:25:25 51°22.317 2°50.545 16.0734 4.188097 32.973747 -3.020363
2011-06-06 07:25:30 51°22.334 2°50.539 16.0697 4.189134 32.984891 -3.020363
2011-06-06 07:25:35 51°22.351 2°50.533 16.0813 4.18986 32.993303 -3.020363
2011-06-06 07:25:40 51°22.368 2°50.527 16.0904 4.190274 32.998303 -3.020363
2011-06-06 07:25:45 51°22.385 2°50.521 16.0778 4.190378 33.001245 -3.020363
2011-06-06 07:25:50 51°22.403 2°50.515 16.083 4.189549 32.996658 -3.020363
2011-06-06 07:25:55 51°22.42 2°50.51 16.0725 4.189549 32.996658 -3.020363
2011-06-06 07:25:59 51°22.434 2°50.505 16.0696 4.188719 32.993425 -3.020363
2011-06-06 07:26:05 51°22.455 2°50.499 16.0646 4.188409 32.99475 -3.020363
2011-06-06 07:26:10 51°22.473 2°50.493 16.0607 4.188098 32.992691 -3.020363
2011-06-06 07:26:15 51°22.49 2°50.488 16.0563 4.188097 32.99066 -3.020363
2011-06-06 07:26:20 51°22.507 2°50.482 16.0501 4.188098 32.992014 -3.020363
2011-06-06 07:26:25 51°22.524 2°50.476 16.043 4.188098 32.992014 -3.020363
2011-06-06 07:26:30 51°22.541 2°50.469 16.0411 4.188098 32.993368 -3.020363
2011-06-06 07:26:35 51°22.558 2°50.463 16.0454 4.188305 32.997901 -3.020363
2011-06-06 07:26:40 51°22.575 2°50.456 16.0349 4.189134 33.008586 -3.020363
2011-06-06 07:26:45 51°22.592 2°50.449 16.0323 4.19069 33.026338 -3.020363
2011-06-06 07:26:50 51°22.608 2°50.441 16.0247 4.192659 33.047067 -3.020363
2011-06-06 07:26:55 51°22.625 2°50.433 16.0239 4.192659 33.047067 -3.020363
2011-06-06 07:27:00 51°22.641 2°50.426 16.0256 4.195148 33.073725 -3.020363
2011-06-06 07:27:05 51°22.658 2°50.417 16.0222 4.197118 33.095827 -3.020363
2011-06-06 07:27:10 51°22.674 2°50.41 16.0217 4.199087 33.115217 -3.020363
2011-06-06 07:27:15 51°22.691 2°50.402 16.0174 4.200954 33.135058 -3.020363
2011-06-06 07:27:19 51°22.705 2°50.397 16.0129 4.202716 33.154673 -3.020363
2011-06-06 07:27:25 51°22.725 2°50.389 16.008 4.202716 33.154673 -3.020363
2011-06-06 07:27:30 51°22.742 2°50.382 16.0072 4.204064 33.17132 -3.020363
2011-06-06 07:27:35 51°22.759 2°50.375 16.0033 4.204582 33.177934 -3.020363
2011-06-06 07:27:40 51°22.776 2°50.368 15.9935 4.20479 33.183172 -3.020363
2011-06-06 07:27:45 51°22.793 2°50.361 15.9914 4.205205 33.189556 -3.020363
2011-06-06 07:27:50 51°22.81 2°50.354 15.9834 4.206241 33.200744 -3.020363
2011-06-06 07:27:55 51°22.827 2°50.347 15.9918 4.206241 33.200744 -3.020363
2011-06-06 07:28:00 51°22.844 2°50.34 15.9951 4.207589 33.217408 -3.020363
2011-06-06 07:28:05 51°22.861 2°50.333 15.9971 4.208211 33.225626 -3.020363
2011-06-06 07:28:10 51°22.877 2°50.326 15.9878 4.208834 33.233846 -3.020363
2011-06-06 07:28:15 51°22.894 2°50.318 15.9868 4.209559 33.243666 -3.020363
2011-06-06 07:28:19 51°22.908 2°50.313 15.9834 4.210181 33.25531 -3.020363
2011-06-06 07:28:25 51°22.928 2°50.304 15.9978 4.210181 33.25531 -3.020363
2011-06-06 07:28:30 51°22.945 2°50.297 15.9829 4.210389 33.260561 -3.020363
2011-06-06 07:28:35 51°22.962 2°50.29 15.9768 4.210493 33.26216 -3.020363
2011-06-06 07:28:40 51°22.98 2°50.283 15.9776 4.210596 33.263075 -3.020363
2011-06-06 07:28:45 51°22.997 2°50.277 15.9848 4.2107 33.265359 -3.020363
2011-06-06 07:28:50 51°23.014 2°50.271 15.9858 4.210804 33.266274 -3.020363
2011-06-06 07:28:55 51°23.031 2°50.264 15.9695 4.210804 33.266274 -3.020363
2011-06-06 07:29:00 51°23.048 2°50.257 15.9718 4.211115 33.270388 -3.020363
2011-06-06 07:29:05 51°23.065 2°50.25 15.9671 4.211426 33.273818 -3.020363
2011-06-06 07:29:10 51°23.082 2°50.243 15.9673 4.211737 33.279988 -3.020363
2011-06-06 07:29:15 51°23.1 2°50.237 15.9662 4.211841 33.282958 -3.020363
2011-06-06 07:29:20 51°23.117 2°50.23 15.9519 4.212152 33.286389 -3.020363
2011-06-06 07:29:25 51°23.134 2°50.223 15.9635 4.212152 33.286389 -3.020363
2011-06-06 07:29:30 51°23.151 2°50.217 15.958 4.212463 33.291876 -3.020363
2011-06-06 07:29:35 51°23.168 2°50.211 15.9661 4.212566 33.295533 -3.020363
2011-06-06 07:29:40 51°23.185 2°50.206 15.9491 4.21267 33.29919 -3.020363
2011-06-06 07:29:45 51°23.202 2°50.2 15.9435 4.212878 33.30445 -3.020363
2011-06-06 07:29:50 51°23.22 2°50.195 15.9437 4.212878 33.307193 -3.020363
2011-06-06 07:29:55 51°23.237 2°50.19 15.9467 4.212878 33.307193 -3.020363
2011-06-06 07:30:00 51°23.254 2°50.184 15.945 4.213085 33.311083 -3.020363
2011-06-06 07:30:05 51°23.271 2°50.179 15.9385 4.213085 33.311769 -3.020363
2011-06-06 07:30:10 51°23.288 2°50.172 15.9387 4.213189 33.313371 -3.020363
2011-06-06 07:30:15 51°23.305 2°50.166 15.9339 4.2135 33.319549 -3.020363
2011-06-06 07:30:20 51°23.322 2°50.159 15.9313 4.213707 33.324814 -3.020363
2011-06-06 07:30:25 51°23.339 2°50.153 15.9324 4.213707 33.324814 -3.020363
2011-06-06 07:30:30 51°23.357 2°50.145 15.9286 4.213811 33.329163 -3.020363
2011-06-06 07:30:35 51°23.374 2°50.138 15.9279 4.214122 33.333285 -3.020363
2011-06-06 07:30:40 51°23.391 2°50.13 15.9325 4.214329 33.337178 -3.020363
2011-06-06 07:30:45 51°23.407 2°50.122 15.9271 4.214537 33.340385 -3.020363
2011-06-06 07:30:50 51°23.424 2°50.114 15.925 4.214848 33.345882 -3.020363
2011-06-06 07:30:55 51°23.441 2°50.106 15.9269 4.214848 33.345882 -3.020363
2011-06-06 07:30:59 51°23.455 2°50.1 15.9265 4.214952 33.34886 -3.020363
2011-06-06 07:31:05 51°23.475 2°50.091 15.9234 4.215263 33.353672 -3.020363
2011-06-06 07:31:10 51°23.492 2°50.083 15.9215 4.21547 33.35688 -3.020363
2011-06-06 07:31:15 51°23.509 2°50.075 15.9188 4.215574 33.358485 -3.020363
2011-06-06 07:31:20 51°23.526 2°50.068 15.9122 4.215781 33.361693 -3.020363
2011-06-06 07:31:25 51°23.543 2°50.061 15.912 4.215781 33.361693 -3.020363
2011-06-06 07:31:30 51°23.56 2°50.054 15.9043 4.215781 33.363069 -3.020363
2011-06-06 07:31:35 51°23.577 2°50.048 15.9031 4.215677 33.36284 -3.020363
2011-06-06 07:31:40 51°23.594 2°50.041 15.9039 4.215677 33.36284 -3.020363
2011-06-06 07:31:46 51°23.615 2°50.034 15.8995 4.215677 33.36284 -3.020363
2011-06-06 07:31:50 51°23.629 2°50.029 15.9 4.215677 33.366279 -3.020363
2011-06-06 07:31:55 51°23.646 2°50.023 15.8989 4.215677 33.366279 -3.020363
2011-06-06 07:32:00 51°23.663 2°50.018 15.9039 4.215678 33.370408 -3.020363
2011-06-06 07:32:05 51°23.679 2°50.013 15.8994 4.21547 33.372015 -3.020363
2011-06-06 07:32:10 51°23.697 2°50.007 15.8987 4.215263 33.374311 -3.020363
2011-06-06 07:32:15 51°23.714 2°50.002 15.892 4.215159 33.374771 -3.020363
2011-06-06 07:32:20 51°23.731 2°49.996 15.8957 4.215159 33.376837 -3.020363
2011-06-06 07:32:25 51°23.748 2°49.99 15.8944 4.215159 33.376837 -3.020363
2011-06-06 07:32:30 51°23.765 2°49.984 15.8909 4.215263 33.37982 -3.020363
2011-06-06 07:32:35 51°23.781 2°49.977 15.8912 4.215367 33.382115 -3.020363
2011-06-06 07:32:40 51°23.798 2°49.971 15.8861 4.21547 33.383721 -3.020363
2011-06-06 07:32:45 51°23.815 2°49.964 15.8761 4.215678 33.386933 -3.020363
2011-06-06 07:32:51 51°23.835 2°49.956 15.8767 4.215781 33.389918 -3.020363
2011-06-06 07:32:55 51°23.849 2°49.951 15.8755 4.215781 33.389918 -3.020363
2011-06-06 07:33:00 51°23.866 2°49.944 15.8697 4.215885 33.392902 -3.020363
2011-06-06 07:33:05 51°23.883 2°49.937 15.8705 4.215989 33.395198 -3.020363
2011-06-06 07:33:10 51°23.9 2°49.929 15.8651 4.216093 33.397494 -3.020363
2011-06-06 07:33:15 51°23.917 2°49.922 15.8708 4.216196 33.40048 -3.020363
2011-06-06 07:33:20 51°23.933 2°49.914 15.8793 4.216196 33.403927 -3.020363
2011-06-06 07:33:25 51°23.95 2°49.906 15.8721 4.216196 33.403927 -3.020363
2011-06-06 07:33:30 51°23.966 2°49.898 15.8631 4.216196 33.406686 -3.020363
2011-06-06 07:33:35 51°23.983 2°49.89 15.8656 4.216196 33.408755 -3.020363
2011-06-06 07:33:39 51°23.996 2°49.884 15.8647 4.216196 33.411515 -3.020363
2011-06-06 07:33:45 51°24.016 2°49.874 15.8606 4.216197 33.413585 -3.020363
2011-06-06 07:33:50 51°24.033 2°49.866 15.857 4.216093 33.413357 -3.020363
2011-06-06 07:33:55 51°24.049 2°49.859 15.8532 4.216093 33.413357 -3.020363
2011-06-06 07:34:00 51°24.066 2°49.851 15.8494 4.216093 33.411977 -3.020363
2011-06-06 07:34:05 51°24.083 2°49.844 15.8568 4.216093 33.413357 -3.020363
2011-06-06 07:34:10 51°24.1 2°49.837 15.8487 4.216093 33.414737 -3.020363
2011-06-06 07:34:15 51°24.117 2°49.829 15.8436 4.215989 33.416579 -3.020363
2011-06-06 07:34:20 51°24.134 2°49.822 15.8412 4.215989 33.41865 -3.020363
2011-06-06 07:34:26 51°24.154 2°49.813 15.8469 4.215989 33.41865 -3.020363
2011-06-06 07:34:30 51°24.167 2°49.808 15.8465 4.215886 33.421184 -3.020363
2011-06-06 07:34:35 51°24.184 2°49.801 15.8451 4.215678 33.422799 -3.020363
2011-06-06 07:34:40 51°24.201 2°49.794 15.8499 4.215575 33.422572 -3.020363
2011-06-06 07:34:45 51°24.218 2°49.786 15.8442 4.214849 33.418905 -3.020363
2011-06-06 07:34:50 51°24.235 2°49.78 15.8436 4.21402 33.41432 -3.020363
2011-06-06 07:34:55 51°24.252 2°49.773 15.8418 4.21402 33.41432 -3.020363
2011-06-06 07:35:00 51°24.27 2°49.766 15.8409 4.21516 33.425805 -3.020363
2011-06-06 07:35:05 51°24.287 2°49.76 15.8426 4.215264 33.427414 -3.020363
2011-06-06 07:35:10 51°24.304 2°49.753 15.8401 4.215367 33.428332 -3.020363
2011-06-06 07:35:15 51°24.321 2°49.747 15.8343 4.215471 33.429251 -3.020363
2011-06-06 07:35:20 51°24.338 2°49.74 15.8325 4.215575 33.43017 -3.020363
2011-06-06 07:35:25 51°24.355 2°49.734 15.837 4.215575 33.43017 -3.020363
2011-06-06 07:35:30 51°24.372 2°49.727 15.8301 4.215679 33.431779 -3.020363
2011-06-06 07:35:35 51°24.389 2°49.721 15.8255 4.215679 33.43247 -3.020363
2011-06-06 07:35:40 51°24.406 2°49.714 15.8359 4.215471 33.432015 -3.020363
2011-06-06 07:35:45 51°24.423 2°49.708 15.8287 4.215471 33.434088 -3.020363
2011-06-06 07:35:50 51°24.44 2°49.702 15.818 4.215368 33.434552 -3.020363
2011-06-06 07:35:55 51°24.458 2°49.695 15.8193 4.215368 33.434552 -3.020363
2011-06-06 07:36:00 51°24.474 2°49.689 15.8157 4.215264 33.435706 -3.020363
2011-06-06 07:36:05 51°24.491 2°49.683 15.8155 4.215264 33.436398 -3.020363
2011-06-06 07:36:10 51°24.508 2°49.677 15.8156 4.215057 33.436634 -3.020363
2011-06-06 07:36:15 51°24.525 2°49.67 15.8105 4.215057 33.436634 -3.020363
2011-06-06 07:36:19 51°24.538 2°49.665 15.8014 4.214953 33.437789 -3.020363
2011-06-06 07:36:25 51°24.558 2°49.658 15.7995 4.214953 33.437789 -3.020363
2011-06-06 07:36:30 51°24.575 2°49.651 15.7969 4.214642 33.438489 -3.020363
2011-06-06 07:36:35 51°24.592 2°49.644 15.8033 4.214331 33.438498 -3.020363
2011-06-06 07:36:40 51°24.609 2°49.637 15.7968 4.213916 33.437588 -3.020363
2011-06-06 07:36:45 51°24.626 2°49.631 15.795 4.213605 33.436905 -3.020363
2011-06-06 07:36:50 51°24.642 2°49.624 15.7917 4.213294 33.438298 -3.020363
2011-06-06 07:36:55 51°24.66 2°49.617 15.7921 4.213294 33.438298 -3.020363
2011-06-06 07:37:00 51°24.676 2°49.611 15.7859 4.212983 33.43969 -3.020363
2011-06-06 07:37:05 51°24.693 2°49.603 15.7845 4.212569 33.438088 -3.020363
2011-06-06 07:37:11 51°24.713 2°49.594 15.7735 4.212258 33.436714 -3.020363
2011-06-06 07:37:15 51°24.726 2°49.589 15.7799 4.212154 33.437178 -3.020363
2011-06-06 07:37:20 51°24.743 2°49.581 15.7718 4.211947 33.437415 -3.020363
2011-06-06 07:37:25 51°24.76 2°49.573 15.7729 4.211947 33.437415 -3.020363
2011-06-06 07:37:30 51°24.777 2°49.566 15.7635 4.211739 33.437652 -3.020363
2011-06-06 07:37:35 51°24.794 2°49.557 15.7577 4.211532 33.439273 -3.020363
2011-06-06 07:37:40 51°24.811 2°49.549 15.7635 4.211325 33.439511 -3.020363
2011-06-06 07:37:45 51°24.828 2°49.541 15.7662 4.211221 33.442052 -3.020363
2011-06-06 07:37:50 51°24.845 2°49.533 15.754 4.21091 33.442062 -3.020363
2011-06-06 07:37:55 51°24.862 2°49.525 15.7489 4.21091 33.442062 -3.020363
2011-06-06 07:38:00 51°24.879 2°49.517 15.7419 4.210703 33.442992 -3.020363
2011-06-06 07:38:05 51°24.896 2°49.509 15.7353 4.210599 33.444843 -3.020363
2011-06-06 07:38:10 51°24.912 2°49.5 15.7311 4.210496 33.448079 -3.020363
2011-06-06 07:38:15 51°24.929 2°49.492 15.7252 4.210185 33.44809 -3.020363
2011-06-06 07:38:20 51°24.946 2°49.484 15.7187 4.210185 33.450169 -3.020363
2011-06-06 07:38:26 51°24.967 2°49.474 15.7111 4.210185 33.450169 -3.020363
2011-06-06 07:38:30 51°24.98 2°49.468 15.7047 4.210081 33.452713 -3.020363
2011-06-06 07:38:35 51°24.997 2°49.46 15.6981 4.20977 33.456191 -3.020363
2011-06-06 07:38:40 51°25.014 2°49.451 15.6986 4.209459 33.458976 -3.020363
2011-06-06 07:38:45 51°25.031 2°49.443 15.7007 4.208941 33.457841 -3.020363
2011-06-06 07:38:50 51°25.047 2°49.435 15.6943 4.208215 33.458331 -3.020363
2011-06-06 07:38:55 51°25.064 2°49.427 15.6882 4.208215 33.458331 -3.020363
2011-06-06 07:38:59 51°25.078 2°49.421 15.6838 4.207593 33.45905 -3.020363
2011-06-06 07:39:05 51°25.098 2°49.411 15.6779 4.206868 33.45746 -3.020363
2011-06-06 07:39:10 51°25.116 2°49.404 15.6758 4.206142 33.457952 -3.020363
2011-06-06 07:39:15 51°25.133 2°49.396 15.678 4.20552 33.456589 -3.020363
2011-06-06 07:39:20 51°25.15 2°49.389 15.6698 4.204794 33.452915 -3.020363
2011-06-06 07:39:25 51°25.167 2°49.382 15.6692 4.204794 33.452915 -3.020363
2011-06-06 07:39:31 51°25.187 2°49.374 15.6644 4.204069 33.449936 -3.020363
2011-06-06 07:39:35 51°25.201 2°49.368 15.6604 4.203343 33.447651 -3.020363
2011-06-06 07:39:40 51°25.218 2°49.361 15.6634 4.202514 33.444443 -3.020363
2011-06-06 07:39:45 51°25.235 2°49.355 15.6642 4.201477 33.439391 -3.020363
2011-06-06 07:39:50 51°25.253 2°49.348 15.6627 4.200959 33.438254 -3.020363
2011-06-06 07:39:55 51°25.27 2°49.342 15.6612 4.200959 33.438254 -3.020363
2011-06-06 07:39:59 51°25.283 2°49.337 15.6581 4.200026 33.433429 -3.020363
2011-06-06 07:40:05 51°25.304 2°49.329 15.6492 4.199404 33.431369 -3.020363
2011-06-06 07:40:10 51°25.321 2°49.322 15.6556 4.198678 33.427692 -3.020363
2011-06-06 07:40:15 51°25.338 2°49.316 15.6536 4.198159 33.425165 -3.020363
2011-06-06 07:40:20 51°25.355 2°49.309 15.6517 4.197745 33.422171 -3.020363
2011-06-06 07:40:25 51°25.372 2°49.302 15.6458 4.197745 33.422171 -3.020363
2011-06-06 07:40:30 51°25.389 2°49.295 15.6488 4.197123 33.418027 -3.020363
2011-06-06 07:40:35 51°25.406 2°49.287 15.6416 4.196604 33.41411 -3.020363
2011-06-06 07:40:40 51°25.423 2°49.281 15.6478 4.196086 33.412971 -3.020363
2011-06-06 07:40:46 51°25.443 2°49.273 15.6394 4.195775 33.411593 -3.020363
2011-06-06 07:40:50 51°25.457 2°49.267 15.6421 4.19536 33.409292 -3.020363
2011-06-06 07:40:55 51°25.474 2°49.26 15.6377 4.19536 33.409292 -3.020363
2011-06-06 07:41:00 51°25.49 2°49.253 15.6419 4.194946 33.406992 -3.020363
2011-06-06 07:41:05 51°25.507 2°49.245 15.6345 4.194635 33.407002 -3.020363
2011-06-06 07:41:10 51°25.524 2°49.237 15.6365 4.194324 33.405624 -3.020363
2011-06-06 07:41:15 51°25.54 2°49.226 15.6307 4.194013 33.404245 -3.020363
2011-06-06 07:41:20 51°25.556 2°49.213 15.6297 4.193702 33.404256 -3.020363
2011-06-06 07:41:25 51°25.571 2°49.198 15.6314 4.193702 33.404256 -3.020363
2011-06-06 07:41:30 51°25.587 2°49.183 15.6315 4.193287 33.40126 -3.020363
2011-06-06 07:41:35 51°25.601 2°49.166 15.6334 4.19308 33.401498 -3.020363
2011-06-06 07:41:40 51°25.615 2°49.149 15.6262 4.192872 33.401042 -3.020363
2011-06-06 07:41:45 51°25.629 2°49.13 15.627 4.192561 33.401052 -3.020363
2011-06-06 07:41:50 51°25.644 2°49.112 15.6226 4.192354 33.400596 -3.020363
2011-06-06 07:41:55 51°25.657 2°49.092 15.6247 4.192354 33.400596 -3.020363
2011-06-06 07:42:00 51°25.671 2°49.072 15.6242 4.19225 33.401063 -3.020363
2011-06-06 07:42:05 51°25.683 2°49.051 15.62 4.192251 33.401757 -3.020363
2011-06-06 07:42:10 51°25.697 2°49.031 15.6183 4.192043 33.400606 -3.020363
2011-06-06 07:42:15 51°25.709 2°49.01 15.6174 4.19194 33.401073 -3.020363
2011-06-06 07:42:20 51°25.722 2°48.989 15.6168 4.191732 33.401311 -3.020363
2011-06-06 07:42:25 51°25.735 2°48.968 15.6211 4.191732 33.401311 -3.020363
2011-06-06 07:42:30 51°25.747 2°48.947 15.6167 4.191525 33.400161 -3.020363
2011-06-06 07:42:35 51°25.76 2°48.927 15.6199 4.191421 33.400627 -3.020363
2011-06-06 07:42:40 51°25.772 2°48.907 15.6151 4.191214 33.399476 -3.020363
2011-06-06 07:42:45 51°25.784 2°48.887 15.6195 4.19111 33.399943 -3.020363
2011-06-06 07:42:50 51°25.796 2°48.868 15.6117 4.19111 33.402027 -3.020363
2011-06-06 07:42:55 51°25.807 2°48.849 15.614 4.19111 33.402027 -3.020363
2011-06-06 07:43:00 51°25.819 2°48.831 15.6077 4.191214 33.40295 -3.020363
2011-06-06 07:43:05 51°25.831 2°48.812 15.612 4.191421 33.405491 -3.020363
2011-06-06 07:43:10 51°25.842 2°48.794 15.6052 4.191525 33.406414 -3.020363
2011-06-06 07:43:15 51°25.854 2°48.775 15.6046 4.191836 33.409183 -3.020363
2011-06-06 07:43:20 51°25.866 2°48.757 15.5999 4.19194 33.410801 -3.020363
2011-06-06 07:43:25 51°25.877 2°48.739 15.6007 4.19194 33.410801 -3.020363
2011-06-06 07:43:30 51°25.887 2°48.723 15.594 4.192147 33.414038 -3.020363
2011-06-06 07:43:35 51°25.897 2°48.706 15.595 4.192251 33.417047 -3.020363
2011-06-06 07:43:40 51°25.907 2°48.691 15.5943 4.192458 33.420284 -3.020363
2011-06-06 07:43:45 51°25.917 2°48.675 15.5947 4.192562 33.422598 -3.020363
2011-06-06 07:43:51 51°25.927 2°48.658 15.5945 4.192769 33.427227 -3.020363
2011-06-06 07:43:55 51°25.934 2°48.647 15.5881 4.192769 33.427227 -3.020363
2011-06-06 07:44:00 51°25.942 2°48.634 15.5889 4.192977 33.431161 -3.020363
2011-06-06 07:44:05 51°25.95 2°48.622 15.5865 4.193184 33.435095 -3.020363
2011-06-06 07:44:10 51°25.957 2°48.61 15.5871 4.193495 33.44065 -3.020363
2011-06-06 07:44:15 51°25.964 2°48.599 15.5626 4.193702 33.443193 -3.020363
2011-06-06 07:44:19 51°25.969 2°48.59 15.5572 4.19391 33.445736 -3.020363
2011-06-06 07:44:25 51°25.977 2°48.578 15.555 4.19391 33.445736 -3.020363
2011-06-06 07:44:30 51°25.984 2°48.568 15.5508 4.194221 33.4499 -3.020363
2011-06-06 07:44:35 51°25.99 2°48.559 15.5497 4.194532 33.454064 -3.020363
2011-06-06 07:44:40 51°25.996 2°48.55 15.5493 4.194947 33.458455 -3.020363
2011-06-06 07:44:45 51°26.002 2°48.542 15.5522 4.195776 33.465148 -3.020363
2011-06-06 07:44:50 51°26.007 2°48.534 15.5539 4.197124 33.480643 -3.020363
2011-06-06 07:44:55 51°26.012 2°48.526 15.5502 4.197124 33.480643 -3.020363
2011-06-06 07:45:00 51°26.017 2°48.519 15.5537 4.198264 33.497083 -3.020363
2011-06-06 07:45:06 51°26.023 2°48.51 15.5529 4.198783 33.507287 -3.020363
2011-06-06 07:45:10 51°26.027 2°48.504 15.5537 4.199301 33.516098 -3.020363
2011-06-06 07:45:15 51°26.032 2°48.499 15.5525 4.199612 33.521665 -3.020363
2011-06-06 07:45:20 51°26.037 2°48.494 15.5506 4.19982 33.524911 -3.020363
2011-06-06 07:45:25 51°26.043 2°48.49 15.5515 4.19982 33.524911 -3.020363
2011-06-06 07:45:30 51°26.048 2°48.488 15.5503 4.200234 33.529308 -3.020363
2011-06-06 07:45:35 51°26.053 2°48.486 15.5438 4.200545 33.532082 -3.020363
2011-06-06 07:45:40 51°26.058 2°48.485 15.5399 4.200856 33.534856 -3.020363
2011-06-06 07:45:45 51°26.064 2°48.485 15.5399 4.201271 33.537855 -3.020363
2011-06-06 07:45:50 51°26.068 2°48.486 15.5409 4.201686 33.542253 -3.020363
2011-06-06 07:45:55 51°26.073 2°48.488 15.5414 4.201686 33.542253 -3.020363
2011-06-06 07:46:00 51°26.077 2°48.491 15.5426 4.202101 33.545253 -3.020363
2011-06-06 07:46:05 51°26.081 2°48.495 15.542 4.202515 33.548951 -3.020363
2011-06-06 07:46:10 51°26.084 2°48.499 15.5438 4.202826 33.552424 -3.020363
2011-06-06 07:46:15 51°26.086 2°48.503 15.5387 4.203137 33.557996 -3.020363
2011-06-06 07:46:20 51°26.088 2°48.508 15.5362 4.203137 33.560094 -3.020363
2011-06-06 07:46:25 51°26.09 2°48.512 15.5381 4.203137 33.560094 -3.020363
2011-06-06 07:46:30 51°26.091 2°48.516 15.5361 4.203137 33.561493 -3.020363
2011-06-06 07:46:35 51°26.092 2°48.52 15.5359 4.203241 33.563118 -3.020363
2011-06-06 07:46:40 51°26.092 2°48.523 15.5391 4.203137 33.562892 -3.020363
2011-06-06 07:46:45 51°26.092 2°48.526 15.5383 4.203137 33.562892 -3.020363
2011-06-06 07:46:50 51°26.093 2°48.528 15.5382 4.203241 33.565216 -3.020363
2011-06-06 07:46:55 51°26.092 2°48.529 15.5363 4.203241 33.565216 -3.020363
2011-06-06 07:46:59 51°26.093 2°48.529 15.539 4.203137 33.564991 -3.020363
2011-06-06 07:47:05 51°26.092 2°48.529 15.5422 4.203137 33.565691 -3.020363
2011-06-06 07:47:10 51°26.092 2°48.529 15.5379 4.203137 33.566391 -3.020363
2011-06-06 07:47:15 51°26.091 2°48.529 15.5386 4.20293 33.56524 -3.020363
2011-06-06 07:47:20 51°26.091 2°48.528 15.5402 4.20293 33.564541 -3.020363
2011-06-06 07:47:26 51°26.09 2°48.528 15.539 4.20293 33.564541 -3.020363
2011-06-06 07:47:30 51°26.089 2°48.528 15.5394 4.202826 33.563616 -3.020363
2011-06-06 07:47:35 51°26.089 2°48.528 15.5403 4.202826 33.564315 -3.020363
2011-06-06 07:47:40 51°26.088 2°48.527 15.5373 4.202723 33.56269 -3.020363
2011-06-06 07:47:45 51°26.088 2°48.527 15.5374 4.202723 33.56269 -3.020363
2011-06-06 07:47:50 51°26.086 2°48.526 15.537 4.202515 33.56084 -3.020363
2011-06-06 07:47:55 51°26.086 2°48.525 15.5374 4.202515 33.56084 -3.020363
2011-06-06 07:47:59 51°26.085 2°48.525 15.5377 4.202619 33.561765 -3.020363
2011-06-06 07:48:05 51°26.084 2°48.524 15.5368 4.202619 33.562465 -3.020363
2011-06-06 07:48:10 51°26.083 2°48.523 15.5398 4.202619 33.562465 -3.020363
2011-06-06 07:48:15 51°26.082 2°48.523 15.5382 4.202619 33.562465 -3.020363
2011-06-06 07:48:20 51°26.081 2°48.522 15.5383 4.202619 33.563165 -3.020363
2011-06-06 07:48:25 51°26.08 2°48.521 15.5382 4.202619 33.563165 -3.020363
2011-06-06 07:48:31 51°26.079 2°48.521 15.5372 4.202515 33.56224 -3.020363
2011-06-06 07:48:35 51°26.079 2°48.52 15.5395 4.202515 33.56294 -3.020363
2011-06-06 07:48:40 51°26.078 2°48.519 15.5377 4.202515 33.56224 -3.020363
2011-06-06 07:48:45 51°26.077 2°48.518 15.5375 4.202515 33.56224 -3.020363
2011-06-06 07:48:50 51°26.076 2°48.518 15.5373 4.202515 33.56224 -3.020363
2011-06-06 07:48:55 51°26.075 2°48.516 15.5396 4.202515 33.56224 -3.020363
2011-06-06 07:49:00 51°26.074 2°48.515 15.5406 4.202412 33.561315 -3.020363
2011-06-06 07:49:05 51°26.074 2°48.515 15.5363 4.202412 33.561315 -3.020363
2011-06-06 07:49:10 51°26.073 2°48.513 15.539 4.202308 33.56039 -3.020363
2011-06-06 07:49:15 51°26.072 2°48.513 15.5406 4.202308 33.56039 -3.020363
2011-06-06 07:49:20 51°26.071 2°48.511 15.5382 4.202204 33.559465 -3.020363
2011-06-06 07:49:25 51°26.07 2°48.51 15.5385 4.202204 33.559465 -3.020363
2011-06-06 07:49:30 51°26.07 2°48.51 15.5394 4.202204 33.559465 -3.020363
2011-06-06 07:49:35 51°26.069 2°48.508 15.5401 4.202204 33.558765 -3.020363
2011-06-06 07:49:40 51°26.068 2°48.507 15.5417 4.202204 33.559465 -3.020363
2011-06-06 07:49:45 51°26.067 2°48.506 15.539 4.202101 33.55784 -3.020363
2011-06-06 07:49:50 51°26.066 2°48.504 15.5399 4.202101 33.55784 -3.020363
2011-06-06 07:49:55 51°26.066 2°48.503 15.5425 4.202101 33.55784 -3.020363
2011-06-06 07:50:00 51°26.065 2°48.502 15.5434 4.202101 33.55854 -3.020363
2011-06-06 07:50:05 51°26.064 2°48.501 15.5501 4.202101 33.55784 -3.020363
2011-06-06 07:50:10 51°26.064 2°48.499 15.5552 4.202204 33.558765 -3.020363
2011-06-06 07:50:15 51°26.063 2°48.498 15.5639 4.202204 33.558065 -3.020363
2011-06-06 07:50:20 51°26.062 2°48.497 15.5702 4.202101 33.55784 -3.020363
2011-06-06 07:50:25 51°26.061 2°48.495 15.5784 4.202101 33.55784 -3.020363
2011-06-06 07:50:30 51°26.06 2°48.494 15.5744 4.202101 33.55784 -3.020363
2011-06-06 07:50:35 51°26.06 2°48.493 15.5684 4.202204 33.558065 -3.020363
2011-06-06 07:50:40 51°26.059 2°48.492 15.5658 4.202204 33.555967 -3.020363
2011-06-06 07:50:45 51°26.058 2°48.49 15.5645 4.202515 33.555244 -3.020363
2011-06-06 07:50:50 51°26.058 2°48.489 15.5588 4.203034 33.554973 -3.020363
2011-06-06 07:50:55 51°26.057 2°48.487 15.5593 4.203034 33.554973 -3.020363
2011-06-06 07:51:00 51°26.056 2°48.486 15.5642 4.203552 33.553304 -3.020363
2011-06-06 07:51:05 51°26.056 2°48.485 15.5718 4.203967 33.552808 -3.020363
2011-06-06 07:51:10 51°26.055 2°48.483 15.5709 4.204174 33.553259 -3.020363
2011-06-06 07:51:15 51°26.054 2°48.482 15.5713 4.204278 33.554882 -3.020363
2011-06-06 07:51:20 51°26.053 2°48.48 15.5727 4.204174 33.555356 -3.020363
2011-06-06 07:51:25 51°26.053 2°48.478 15.5702 4.204174 33.555356 -3.020363
2011-06-06 07:51:30 51°26.052 2°48.477 15.5746 4.20407 33.556528 -3.020363
2011-06-06 07:51:35 51°26.051 2°48.476 15.5777 4.20407 33.556528 -3.020363
2011-06-06 07:51:40 51°26.05 2°48.474 15.5863 4.204174 33.556055 -3.020363
2011-06-06 07:51:45 51°26.05 2°48.472 15.5888 4.204381 33.555807 -3.020363
2011-06-06 07:51:50 51°26.049 2°48.471 15.5902 4.204485 33.555333 -3.020363
2011-06-06 07:51:55 51°26.048 2°48.469 15.5869 4.204485 33.555333 -3.020363
2011-06-06 07:51:59 51°26.048 2°48.468 15.5814 4.204692 33.556483 -3.020363
2011-06-06 07:52:05 51°26.046 2°48.465 15.5822 4.204692 33.555784 -3.020363
2011-06-06 07:52:10 51°26.046 2°48.464 15.5814 4.2049 33.555536 -3.020363
2011-06-06 07:52:15 51°26.045 2°48.463 15.5771 4.205211 33.555514 -3.020363
2011-06-06 07:52:20 51°26.044 2°48.461 15.5696 4.205625 33.555018 -3.020363
2011-06-06 07:52:26 51°26.043 2°48.459 15.565 4.205625 33.555018 -3.020363
2011-06-06 07:52:30 51°26.043 2°48.458 15.5642 4.205936 33.554996 -3.020363
2011-06-06 07:52:35 51°26.042 2°48.455 15.5652 4.206144 33.556844 -3.020363
2011-06-06 07:52:40 51°26.041 2°48.454 15.5648 4.206144 33.557543 -3.020363
2011-06-06 07:52:45 51°26.041 2°48.452 15.563 4.20604 33.557317 -3.020363
2011-06-06 07:52:50 51°26.04 2°48.45 15.5644 4.20604 33.558715 -3.020363
2011-06-06 07:52:55 51°26.039 2°48.449 15.5677 4.20604 33.558715 -3.020363
2011-06-06 07:52:59 51°26.038 2°48.447 15.5718 4.205833 33.560361 -3.020363
2011-06-06 07:53:05 51°26.037 2°48.445 15.5763 4.205522 33.560383 -3.020363
2011-06-06 07:53:10 51°26.037 2°48.444 15.5807 4.205211 33.560406 -3.020363
2011-06-06 07:53:15 51°26.036 2°48.442 15.5889 4.205003 33.560654 -3.020363
2011-06-06 07:53:20 51°26.035 2°48.44 15.5869 4.204796 33.559505 -3.020363
2011-06-06 07:53:25 51°26.034 2°48.438 15.5879 4.204796 33.559505 -3.020363
2011-06-06 07:53:30 51°26.033 2°48.436 15.5919 4.204692 33.55858 -3.020363
2011-06-06 07:53:35 51°26.032 2°48.434 15.5901 4.204796 33.558806 -3.020363
2011-06-06 07:53:40 51°26.031 2°48.433 15.5894 4.2049 33.556934 -3.020363